<?xml version="1.0" encoding="UTF-8" standalone="no" ?>
<gpx xmlns="http://www.topografix.com/GPX/1/1" xmlns:xsi="http://www.w3.org/2001/XMLSchema-instance" xsi:schemaLocation="http://www.topografix.com/GPX/1/1 http://www.topografix.com/GPX/1/1/gpx.xsd" version="1.1" creator="VisuGPX - https://www.visugpx.com">
  <metadata>
    <name>Bouchon (rando chemins en Somme)</name>
    <desc><![CDATA[Walkmeter Marche 9 sept. 2012 09:07:54]]></desc>
  </metadata>
  <trk>
    <name><![CDATA[Chemins en Somme]]></name>
    <trkseg>
      <trkpt lat="50.0352" lon="2.03039">
        <ele>33.6</ele>
        <time>2012-09-09T07:07:54Z</time>
      </trkpt>
      <trkpt lat="50.03537" lon="2.03051">
        <ele>16.6</ele>
        <time>2012-09-09T07:08:02Z</time>
      </trkpt>
      <trkpt lat="50.03537" lon="2.03051">
        <ele>16.6</ele>
        <time>2012-09-09T07:11:44Z</time>
      </trkpt>
      <trkpt lat="50.03549" lon="2.03063">
        <ele>11</ele>
        <time>2012-09-09T07:11:59Z</time>
      </trkpt>
      <trkpt lat="50.03546" lon="2.03085">
        <ele>16.3</ele>
        <time>2012-09-09T07:12:10Z</time>
      </trkpt>
      <trkpt lat="50.03541" lon="2.03105">
        <ele>20.7</ele>
        <time>2012-09-09T07:12:19Z</time>
      </trkpt>
      <trkpt lat="50.03537" lon="2.03126">
        <ele>25.1</ele>
        <time>2012-09-09T07:12:28Z</time>
      </trkpt>
      <trkpt lat="50.03536" lon="2.03148">
        <ele>25.1</ele>
        <time>2012-09-09T07:12:51Z</time>
      </trkpt>
      <trkpt lat="50.03528" lon="2.03165">
        <ele>25.1</ele>
        <time>2012-09-09T07:13:03Z</time>
      </trkpt>
      <trkpt lat="50.03528" lon="2.03188">
        <ele>26.4</ele>
        <time>2012-09-09T07:13:24Z</time>
      </trkpt>
      <trkpt lat="50.03536" lon="2.03169">
        <ele>29.9</ele>
        <time>2012-09-09T07:13:41Z</time>
      </trkpt>
      <trkpt lat="50.03544" lon="2.03148">
        <ele>31.8</ele>
        <time>2012-09-09T07:13:50Z</time>
      </trkpt>
      <trkpt lat="50.03547" lon="2.03127">
        <ele>33.9</ele>
        <time>2012-09-09T07:14:00Z</time>
      </trkpt>
      <trkpt lat="50.03554" lon="2.03108">
        <ele>36</ele>
        <time>2012-09-09T07:14:10Z</time>
      </trkpt>
      <trkpt lat="50.03566" lon="2.03097">
        <ele>36.8</ele>
        <time>2012-09-09T07:14:24Z</time>
      </trkpt>
      <trkpt lat="50.03578" lon="2.03085">
        <ele>36.8</ele>
        <time>2012-09-09T07:14:34Z</time>
      </trkpt>
      <trkpt lat="50.03586" lon="2.03066">
        <ele>36.8</ele>
        <time>2012-09-09T07:14:44Z</time>
      </trkpt>
      <trkpt lat="50.03595" lon="2.03049">
        <ele>36.8</ele>
        <time>2012-09-09T07:14:56Z</time>
      </trkpt>
      <trkpt lat="50.03609" lon="2.03041">
        <ele>36.8</ele>
        <time>2012-09-09T07:15:11Z</time>
      </trkpt>
      <trkpt lat="50.03623" lon="2.0304">
        <ele>36.8</ele>
        <time>2012-09-09T07:15:22Z</time>
      </trkpt>
      <trkpt lat="50.03638" lon="2.03037">
        <ele>36.8</ele>
        <time>2012-09-09T07:15:35Z</time>
      </trkpt>
      <trkpt lat="50.03651" lon="2.03031">
        <ele>36.8</ele>
        <time>2012-09-09T07:15:47Z</time>
      </trkpt>
      <trkpt lat="50.03664" lon="2.03022">
        <ele>36.8</ele>
        <time>2012-09-09T07:15:59Z</time>
      </trkpt>
      <trkpt lat="50.03674" lon="2.03007">
        <ele>36.8</ele>
        <time>2012-09-09T07:16:10Z</time>
      </trkpt>
      <trkpt lat="50.03685" lon="2.02993">
        <ele>36.8</ele>
        <time>2012-09-09T07:16:24Z</time>
      </trkpt>
      <trkpt lat="50.03696" lon="2.02978">
        <ele>36.8</ele>
        <time>2012-09-09T07:16:37Z</time>
      </trkpt>
      <trkpt lat="50.0371" lon="2.02962">
        <ele>36.8</ele>
        <time>2012-09-09T07:16:47Z</time>
      </trkpt>
      <trkpt lat="50.0372" lon="2.02948">
        <ele>37.6</ele>
        <time>2012-09-09T07:17:01Z</time>
      </trkpt>
      <trkpt lat="50.03731" lon="2.02935">
        <ele>41.6</ele>
        <time>2012-09-09T07:17:12Z</time>
      </trkpt>
      <trkpt lat="50.03742" lon="2.0292">
        <ele>45.6</ele>
        <time>2012-09-09T07:17:23Z</time>
      </trkpt>
      <trkpt lat="50.03754" lon="2.02909">
        <ele>47.5</ele>
        <time>2012-09-09T07:17:36Z</time>
      </trkpt>
      <trkpt lat="50.03767" lon="2.029">
        <ele>47.5</ele>
        <time>2012-09-09T07:17:49Z</time>
      </trkpt>
      <trkpt lat="50.0378" lon="2.02891">
        <ele>47.5</ele>
        <time>2012-09-09T07:18:01Z</time>
      </trkpt>
      <trkpt lat="50.03793" lon="2.02876">
        <ele>47.5</ele>
        <time>2012-09-09T07:18:12Z</time>
      </trkpt>
      <trkpt lat="50.03805" lon="2.02862">
        <ele>47.5</ele>
        <time>2012-09-09T07:18:25Z</time>
      </trkpt>
      <trkpt lat="50.03817" lon="2.02851">
        <ele>47.5</ele>
        <time>2012-09-09T07:18:35Z</time>
      </trkpt>
      <trkpt lat="50.03829" lon="2.0284">
        <ele>47.5</ele>
        <time>2012-09-09T07:18:46Z</time>
      </trkpt>
      <trkpt lat="50.03842" lon="2.02833">
        <ele>47.5</ele>
        <time>2012-09-09T07:18:57Z</time>
      </trkpt>
      <trkpt lat="50.03857" lon="2.02829">
        <ele>47.5</ele>
        <time>2012-09-09T07:19:08Z</time>
      </trkpt>
      <trkpt lat="50.0387" lon="2.02822">
        <ele>48.9</ele>
        <time>2012-09-09T07:19:21Z</time>
      </trkpt>
      <trkpt lat="50.03883" lon="2.02831">
        <ele>55.1</ele>
        <time>2012-09-09T07:19:38Z</time>
      </trkpt>
      <trkpt lat="50.03891" lon="2.0285">
        <ele>59.8</ele>
        <time>2012-09-09T07:19:52Z</time>
      </trkpt>
      <trkpt lat="50.03901" lon="2.02866">
        <ele>59.8</ele>
        <time>2012-09-09T07:20:03Z</time>
      </trkpt>
      <trkpt lat="50.03917" lon="2.02898">
        <ele>62.1</ele>
        <time>2012-09-09T07:20:22Z</time>
      </trkpt>
      <trkpt lat="50.03917" lon="2.02898">
        <ele>62.1</ele>
        <time>2012-09-09T07:22:47Z</time>
      </trkpt>
      <trkpt lat="50.03928" lon="2.0291">
        <ele>64.5</ele>
        <time>2012-09-09T07:22:56Z</time>
      </trkpt>
      <trkpt lat="50.03941" lon="2.02922">
        <ele>65.9</ele>
        <time>2012-09-09T07:23:06Z</time>
      </trkpt>
      <trkpt lat="50.03953" lon="2.02934">
        <ele>67.7</ele>
        <time>2012-09-09T07:23:19Z</time>
      </trkpt>
      <trkpt lat="50.03967" lon="2.02944">
        <ele>69.3</ele>
        <time>2012-09-09T07:23:30Z</time>
      </trkpt>
      <trkpt lat="50.0398" lon="2.0295">
        <ele>70.6</ele>
        <time>2012-09-09T07:23:39Z</time>
      </trkpt>
      <trkpt lat="50.03994" lon="2.02953">
        <ele>70.7</ele>
        <time>2012-09-09T07:23:50Z</time>
      </trkpt>
      <trkpt lat="50.04004" lon="2.02944">
        <ele>70.7</ele>
        <time>2012-09-09T07:24:12Z</time>
      </trkpt>
      <trkpt lat="50.04019" lon="2.0294">
        <ele>74.5</ele>
        <time>2012-09-09T07:24:32Z</time>
      </trkpt>
      <trkpt lat="50.04032" lon="2.02936">
        <ele>81.5</ele>
        <time>2012-09-09T07:24:49Z</time>
      </trkpt>
      <trkpt lat="50.04047" lon="2.02935">
        <ele>77.8</ele>
        <time>2012-09-09T07:25:05Z</time>
      </trkpt>
      <trkpt lat="50.04059" lon="2.02926">
        <ele>73.5</ele>
        <time>2012-09-09T07:25:18Z</time>
      </trkpt>
      <trkpt lat="50.04072" lon="2.02919">
        <ele>73.5</ele>
        <time>2012-09-09T07:25:29Z</time>
      </trkpt>
      <trkpt lat="50.04084" lon="2.02907">
        <ele>73.5</ele>
        <time>2012-09-09T07:25:44Z</time>
      </trkpt>
      <trkpt lat="50.04096" lon="2.02894">
        <ele>71.1</ele>
        <time>2012-09-09T07:25:58Z</time>
      </trkpt>
      <trkpt lat="50.04108" lon="2.02883">
        <ele>68.9</ele>
        <time>2012-09-09T07:26:09Z</time>
      </trkpt>
      <trkpt lat="50.04119" lon="2.02867">
        <ele>66.7</ele>
        <time>2012-09-09T07:26:20Z</time>
      </trkpt>
      <trkpt lat="50.04123" lon="2.02845">
        <ele>62.5</ele>
        <time>2012-09-09T07:26:41Z</time>
      </trkpt>
      <trkpt lat="50.04131" lon="2.02825">
        <ele>59.9</ele>
        <time>2012-09-09T07:26:57Z</time>
      </trkpt>
      <trkpt lat="50.04136" lon="2.02805">
        <ele>59.9</ele>
        <time>2012-09-09T07:27:07Z</time>
      </trkpt>
      <trkpt lat="50.04146" lon="2.02787">
        <ele>59.9</ele>
        <time>2012-09-09T07:27:22Z</time>
      </trkpt>
      <trkpt lat="50.04155" lon="2.0277">
        <ele>59.9</ele>
        <time>2012-09-09T07:27:33Z</time>
      </trkpt>
      <trkpt lat="50.04164" lon="2.02753">
        <ele>59.9</ele>
        <time>2012-09-09T07:27:44Z</time>
      </trkpt>
      <trkpt lat="50.04177" lon="2.0274">
        <ele>59.9</ele>
        <time>2012-09-09T07:27:56Z</time>
      </trkpt>
      <trkpt lat="50.04188" lon="2.02728">
        <ele>59.9</ele>
        <time>2012-09-09T07:28:10Z</time>
      </trkpt>
      <trkpt lat="50.04201" lon="2.0271">
        <ele>59.9</ele>
        <time>2012-09-09T07:28:23Z</time>
      </trkpt>
      <trkpt lat="50.04203" lon="2.02688">
        <ele>59.9</ele>
        <time>2012-09-09T07:28:37Z</time>
      </trkpt>
      <trkpt lat="50.04203" lon="2.02666">
        <ele>59.9</ele>
        <time>2012-09-09T07:28:47Z</time>
      </trkpt>
      <trkpt lat="50.04203" lon="2.02644">
        <ele>59.9</ele>
        <time>2012-09-09T07:28:58Z</time>
      </trkpt>
      <trkpt lat="50.04207" lon="2.02622">
        <ele>48.8</ele>
        <time>2012-09-09T07:29:17Z</time>
      </trkpt>
      <trkpt lat="50.04211" lon="2.026">
        <ele>51.3</ele>
        <time>2012-09-09T07:29:26Z</time>
      </trkpt>
      <trkpt lat="50.04217" lon="2.02579">
        <ele>54.2</ele>
        <time>2012-09-09T07:29:36Z</time>
      </trkpt>
      <trkpt lat="50.04224" lon="2.02559">
        <ele>57.6</ele>
        <time>2012-09-09T07:29:48Z</time>
      </trkpt>
      <trkpt lat="50.0423" lon="2.0254">
        <ele>59.9</ele>
        <time>2012-09-09T07:29:57Z</time>
      </trkpt>
      <trkpt lat="50.04237" lon="2.02521">
        <ele>59.9</ele>
        <time>2012-09-09T07:30:09Z</time>
      </trkpt>
      <trkpt lat="50.04245" lon="2.02502">
        <ele>59.9</ele>
        <time>2012-09-09T07:30:18Z</time>
      </trkpt>
      <trkpt lat="50.04253" lon="2.02485">
        <ele>59.9</ele>
        <time>2012-09-09T07:30:32Z</time>
      </trkpt>
      <trkpt lat="50.04265" lon="2.02475">
        <ele>59.9</ele>
        <time>2012-09-09T07:30:41Z</time>
      </trkpt>
      <trkpt lat="50.04278" lon="2.02469">
        <ele>59.9</ele>
        <time>2012-09-09T07:30:49Z</time>
      </trkpt>
      <trkpt lat="50.04293" lon="2.02468">
        <ele>59.9</ele>
        <time>2012-09-09T07:31:02Z</time>
      </trkpt>
      <trkpt lat="50.04306" lon="2.02473">
        <ele>59.9</ele>
        <time>2012-09-09T07:31:13Z</time>
      </trkpt>
      <trkpt lat="50.0432" lon="2.02479">
        <ele>59.9</ele>
        <time>2012-09-09T07:31:24Z</time>
      </trkpt>
      <trkpt lat="50.04333" lon="2.0249">
        <ele>59.9</ele>
        <time>2012-09-09T07:31:36Z</time>
      </trkpt>
      <trkpt lat="50.04345" lon="2.02502">
        <ele>59.9</ele>
        <time>2012-09-09T07:31:47Z</time>
      </trkpt>
      <trkpt lat="50.04358" lon="2.02509">
        <ele>59.9</ele>
        <time>2012-09-09T07:31:59Z</time>
      </trkpt>
      <trkpt lat="50.04371" lon="2.02517">
        <ele>59.9</ele>
        <time>2012-09-09T07:32:09Z</time>
      </trkpt>
      <trkpt lat="50.04384" lon="2.02525">
        <ele>59.9</ele>
        <time>2012-09-09T07:32:19Z</time>
      </trkpt>
      <trkpt lat="50.04397" lon="2.02534">
        <ele>59.9</ele>
        <time>2012-09-09T07:32:30Z</time>
      </trkpt>
      <trkpt lat="50.0441" lon="2.02541">
        <ele>59.9</ele>
        <time>2012-09-09T07:32:41Z</time>
      </trkpt>
      <trkpt lat="50.04422" lon="2.02552">
        <ele>59.9</ele>
        <time>2012-09-09T07:32:51Z</time>
      </trkpt>
      <trkpt lat="50.04434" lon="2.02566">
        <ele>64.7</ele>
        <time>2012-09-09T07:33:02Z</time>
      </trkpt>
      <trkpt lat="50.04447" lon="2.02577">
        <ele>69.1</ele>
        <time>2012-09-09T07:33:11Z</time>
      </trkpt>
      <trkpt lat="50.04481" lon="2.02584">
        <ele>67</ele>
        <time>2012-09-09T07:33:36Z</time>
      </trkpt>
      <trkpt lat="50.04481" lon="2.02584">
        <ele>67</ele>
        <time>2012-09-09T07:37:04Z</time>
      </trkpt>
      <trkpt lat="50.04504" lon="2.02577">
        <ele>61</ele>
        <time>2012-09-09T07:37:17Z</time>
      </trkpt>
      <trkpt lat="50.04515" lon="2.02563">
        <ele>61</ele>
        <time>2012-09-09T07:37:34Z</time>
      </trkpt>
      <trkpt lat="50.04513" lon="2.0254">
        <ele>61</ele>
        <time>2012-09-09T07:37:50Z</time>
      </trkpt>
      <trkpt lat="50.04513" lon="2.02518">
        <ele>61</ele>
        <time>2012-09-09T07:38:00Z</time>
      </trkpt>
      <trkpt lat="50.04518" lon="2.02497">
        <ele>61</ele>
        <time>2012-09-09T07:38:10Z</time>
      </trkpt>
      <trkpt lat="50.04528" lon="2.02482">
        <ele>61</ele>
        <time>2012-09-09T07:38:22Z</time>
      </trkpt>
      <trkpt lat="50.04542" lon="2.0248">
        <ele>61</ele>
        <time>2012-09-09T07:38:33Z</time>
      </trkpt>
      <trkpt lat="50.04556" lon="2.02476">
        <ele>61</ele>
        <time>2012-09-09T07:38:47Z</time>
      </trkpt>
      <trkpt lat="50.04569" lon="2.02474">
        <ele>61</ele>
        <time>2012-09-09T07:38:58Z</time>
      </trkpt>
      <trkpt lat="50.04581" lon="2.0246">
        <ele>61</ele>
        <time>2012-09-09T07:39:14Z</time>
      </trkpt>
      <trkpt lat="50.04582" lon="2.02437">
        <ele>61</ele>
        <time>2012-09-09T07:39:29Z</time>
      </trkpt>
      <trkpt lat="50.04582" lon="2.02415">
        <ele>61</ele>
        <time>2012-09-09T07:39:44Z</time>
      </trkpt>
      <trkpt lat="50.04582" lon="2.02391">
        <ele>61</ele>
        <time>2012-09-09T07:39:54Z</time>
      </trkpt>
      <trkpt lat="50.04592" lon="2.02375">
        <ele>61</ele>
        <time>2012-09-09T07:40:06Z</time>
      </trkpt>
      <trkpt lat="50.04598" lon="2.02356">
        <ele>61</ele>
        <time>2012-09-09T07:40:19Z</time>
      </trkpt>
      <trkpt lat="50.0461" lon="2.02344">
        <ele>61</ele>
        <time>2012-09-09T07:40:31Z</time>
      </trkpt>
      <trkpt lat="50.04624" lon="2.0234">
        <ele>61</ele>
        <time>2012-09-09T07:40:42Z</time>
      </trkpt>
      <trkpt lat="50.04638" lon="2.02342">
        <ele>61</ele>
        <time>2012-09-09T07:40:56Z</time>
      </trkpt>
      <trkpt lat="50.0465" lon="2.02331">
        <ele>61</ele>
        <time>2012-09-09T07:41:13Z</time>
      </trkpt>
      <trkpt lat="50.04663" lon="2.02321">
        <ele>61</ele>
        <time>2012-09-09T07:41:26Z</time>
      </trkpt>
      <trkpt lat="50.04671" lon="2.02303">
        <ele>61</ele>
        <time>2012-09-09T07:41:43Z</time>
      </trkpt>
      <trkpt lat="50.04676" lon="2.0228">
        <ele>61</ele>
        <time>2012-09-09T07:41:59Z</time>
      </trkpt>
      <trkpt lat="50.04683" lon="2.0226">
        <ele>61</ele>
        <time>2012-09-09T07:42:11Z</time>
      </trkpt>
      <trkpt lat="50.04689" lon="2.0224">
        <ele>61</ele>
        <time>2012-09-09T07:42:20Z</time>
      </trkpt>
      <trkpt lat="50.04694" lon="2.02219">
        <ele>61</ele>
        <time>2012-09-09T07:42:33Z</time>
      </trkpt>
      <trkpt lat="50.04695" lon="2.02196">
        <ele>61</ele>
        <time>2012-09-09T07:42:44Z</time>
      </trkpt>
      <trkpt lat="50.04693" lon="2.02175">
        <ele>61</ele>
        <time>2012-09-09T07:42:56Z</time>
      </trkpt>
      <trkpt lat="50.04692" lon="2.02153">
        <ele>53.4</ele>
        <time>2012-09-09T07:43:06Z</time>
      </trkpt>
      <trkpt lat="50.04693" lon="2.02129">
        <ele>45.9</ele>
        <time>2012-09-09T07:43:18Z</time>
      </trkpt>
      <trkpt lat="50.04692" lon="2.02107">
        <ele>51</ele>
        <time>2012-09-09T07:43:31Z</time>
      </trkpt>
      <trkpt lat="50.04692" lon="2.02084">
        <ele>58.1</ele>
        <time>2012-09-09T07:43:48Z</time>
      </trkpt>
      <trkpt lat="50.04699" lon="2.02065">
        <ele>59.8</ele>
        <time>2012-09-09T07:43:59Z</time>
      </trkpt>
      <trkpt lat="50.04711" lon="2.02052">
        <ele>59.8</ele>
        <time>2012-09-09T07:44:15Z</time>
      </trkpt>
      <trkpt lat="50.04725" lon="2.02047">
        <ele>59.8</ele>
        <time>2012-09-09T07:44:45Z</time>
      </trkpt>
      <trkpt lat="50.0474" lon="2.02043">
        <ele>59.8</ele>
        <time>2012-09-09T07:44:56Z</time>
      </trkpt>
      <trkpt lat="50.04754" lon="2.02042">
        <ele>59.8</ele>
        <time>2012-09-09T07:45:08Z</time>
      </trkpt>
      <trkpt lat="50.04769" lon="2.0204">
        <ele>57.8</ele>
        <time>2012-09-09T07:45:25Z</time>
      </trkpt>
      <trkpt lat="50.04778" lon="2.02035">
        <ele>44.4</ele>
        <time>2012-09-09T07:45:39Z</time>
      </trkpt>
      <trkpt lat="50.04778" lon="2.02035">
        <ele>44.4</ele>
        <time>2012-09-09T07:46:11Z</time>
      </trkpt>
      <trkpt lat="50.04773" lon="2.0203">
        <ele>41.4</ele>
        <time>2012-09-09T07:46:17Z</time>
      </trkpt>
      <trkpt lat="50.04762" lon="2.02017">
        <ele>42.4</ele>
        <time>2012-09-09T07:46:26Z</time>
      </trkpt>
      <trkpt lat="50.04751" lon="2.02003">
        <ele>37.7</ele>
        <time>2012-09-09T07:46:39Z</time>
      </trkpt>
      <trkpt lat="50.04737" lon="2.02001">
        <ele>33.8</ele>
        <time>2012-09-09T07:46:50Z</time>
      </trkpt>
      <trkpt lat="50.04723" lon="2.01999">
        <ele>33</ele>
        <time>2012-09-09T07:46:59Z</time>
      </trkpt>
      <trkpt lat="50.04709" lon="2.01996">
        <ele>33</ele>
        <time>2012-09-09T07:47:11Z</time>
      </trkpt>
      <trkpt lat="50.04695" lon="2.01994">
        <ele>33</ele>
        <time>2012-09-09T07:47:37Z</time>
      </trkpt>
      <trkpt lat="50.04689" lon="2.01978">
        <ele>33</ele>
        <time>2012-09-09T07:47:51Z</time>
      </trkpt>
      <trkpt lat="50.0467" lon="2.0198">
        <ele>39.7</ele>
        <time>2012-09-09T07:48:04Z</time>
      </trkpt>
      <trkpt lat="50.0467" lon="2.0198">
        <ele>39.7</ele>
        <time>2012-09-09T07:50:49Z</time>
      </trkpt>
      <trkpt lat="50.04669" lon="2.0198">
        <ele>46.4</ele>
        <time>2012-09-09T07:50:51Z</time>
      </trkpt>
      <trkpt lat="50.04697" lon="2.01978">
        <ele>35.5</ele>
        <time>2012-09-09T07:51:09Z</time>
      </trkpt>
      <trkpt lat="50.04697" lon="2.01978">
        <ele>35.5</ele>
        <time>2012-09-09T07:51:56Z</time>
      </trkpt>
      <trkpt lat="50.04712" lon="2.01979">
        <ele>35.5</ele>
        <time>2012-09-09T07:52:04Z</time>
      </trkpt>
      <trkpt lat="50.04725" lon="2.01981">
        <ele>35.5</ele>
        <time>2012-09-09T07:52:17Z</time>
      </trkpt>
      <trkpt lat="50.0474" lon="2.01983">
        <ele>35.5</ele>
        <time>2012-09-09T07:52:27Z</time>
      </trkpt>
      <trkpt lat="50.04754" lon="2.01984">
        <ele>35.5</ele>
        <time>2012-09-09T07:52:39Z</time>
      </trkpt>
      <trkpt lat="50.04768" lon="2.01988">
        <ele>35.5</ele>
        <time>2012-09-09T07:52:49Z</time>
      </trkpt>
      <trkpt lat="50.04781" lon="2.01994">
        <ele>35.5</ele>
        <time>2012-09-09T07:53:00Z</time>
      </trkpt>
      <trkpt lat="50.04795" lon="2.01997">
        <ele>35.5</ele>
        <time>2012-09-09T07:53:11Z</time>
      </trkpt>
      <trkpt lat="50.0481" lon="2.01997">
        <ele>35.5</ele>
        <time>2012-09-09T07:53:23Z</time>
      </trkpt>
      <trkpt lat="50.04824" lon="2.01994">
        <ele>35.5</ele>
        <time>2012-09-09T07:53:35Z</time>
      </trkpt>
      <trkpt lat="50.04838" lon="2.0199">
        <ele>35.5</ele>
        <time>2012-09-09T07:53:45Z</time>
      </trkpt>
      <trkpt lat="50.04851" lon="2.01979">
        <ele>35.5</ele>
        <time>2012-09-09T07:53:56Z</time>
      </trkpt>
      <trkpt lat="50.04861" lon="2.01963">
        <ele>35.5</ele>
        <time>2012-09-09T07:54:09Z</time>
      </trkpt>
      <trkpt lat="50.04872" lon="2.01949">
        <ele>35.5</ele>
        <time>2012-09-09T07:54:18Z</time>
      </trkpt>
      <trkpt lat="50.04885" lon="2.01942">
        <ele>35.5</ele>
        <time>2012-09-09T07:54:28Z</time>
      </trkpt>
      <trkpt lat="50.04899" lon="2.01941">
        <ele>35.5</ele>
        <time>2012-09-09T07:54:40Z</time>
      </trkpt>
      <trkpt lat="50.04912" lon="2.01949">
        <ele>35.5</ele>
        <time>2012-09-09T07:54:51Z</time>
      </trkpt>
      <trkpt lat="50.04924" lon="2.01958">
        <ele>35.5</ele>
        <time>2012-09-09T07:55:03Z</time>
      </trkpt>
      <trkpt lat="50.04998" lon="2.02034">
        <ele>35.5</ele>
        <time>2012-09-09T07:55:13Z</time>
      </trkpt>
      <trkpt lat="50.05015" lon="2.02036">
        <ele>35.8</ele>
        <time>2012-09-09T07:56:15Z</time>
      </trkpt>
      <trkpt lat="50.05019" lon="2.02066">
        <ele>40.5</ele>
        <time>2012-09-09T07:56:29Z</time>
      </trkpt>
      <trkpt lat="50.05019" lon="2.02066">
        <ele>40.5</ele>
        <time>2012-09-09T07:57:57Z</time>
      </trkpt>
      <trkpt lat="50.05013" lon="2.02086">
        <ele>43.2</ele>
        <time>2012-09-09T07:58:00Z</time>
      </trkpt>
      <trkpt lat="50.05019" lon="2.02105">
        <ele>43.2</ele>
        <time>2012-09-09T07:58:11Z</time>
      </trkpt>
      <trkpt lat="50.0503" lon="2.02121">
        <ele>43.2</ele>
        <time>2012-09-09T07:58:21Z</time>
      </trkpt>
      <trkpt lat="50.05042" lon="2.02143">
        <ele>43.2</ele>
        <time>2012-09-09T07:58:32Z</time>
      </trkpt>
      <trkpt lat="50.05049" lon="2.02161">
        <ele>43.2</ele>
        <time>2012-09-09T07:58:46Z</time>
      </trkpt>
      <trkpt lat="50.05057" lon="2.02179">
        <ele>43.2</ele>
        <time>2012-09-09T07:58:58Z</time>
      </trkpt>
      <trkpt lat="50.05065" lon="2.02196">
        <ele>43.2</ele>
        <time>2012-09-09T07:59:10Z</time>
      </trkpt>
      <trkpt lat="50.05076" lon="2.02212">
        <ele>43.2</ele>
        <time>2012-09-09T07:59:20Z</time>
      </trkpt>
      <trkpt lat="50.05085" lon="2.02232">
        <ele>43.2</ele>
        <time>2012-09-09T07:59:31Z</time>
      </trkpt>
      <trkpt lat="50.05092" lon="2.02253">
        <ele>43.2</ele>
        <time>2012-09-09T07:59:44Z</time>
      </trkpt>
      <trkpt lat="50.05104" lon="2.02265">
        <ele>43.2</ele>
        <time>2012-09-09T07:59:57Z</time>
      </trkpt>
      <trkpt lat="50.05116" lon="2.02274">
        <ele>43.2</ele>
        <time>2012-09-09T08:00:08Z</time>
      </trkpt>
      <trkpt lat="50.05128" lon="2.02285">
        <ele>43.2</ele>
        <time>2012-09-09T08:00:17Z</time>
      </trkpt>
      <trkpt lat="50.0514" lon="2.02297">
        <ele>43.2</ele>
        <time>2012-09-09T08:00:27Z</time>
      </trkpt>
      <trkpt lat="50.05152" lon="2.02309">
        <ele>43.2</ele>
        <time>2012-09-09T08:00:42Z</time>
      </trkpt>
      <trkpt lat="50.05166" lon="2.02313">
        <ele>43.2</ele>
        <time>2012-09-09T08:00:53Z</time>
      </trkpt>
      <trkpt lat="50.05181" lon="2.02317">
        <ele>43.2</ele>
        <time>2012-09-09T08:01:05Z</time>
      </trkpt>
      <trkpt lat="50.05194" lon="2.02325">
        <ele>43.2</ele>
        <time>2012-09-09T08:01:18Z</time>
      </trkpt>
      <trkpt lat="50.05208" lon="2.02322">
        <ele>43.2</ele>
        <time>2012-09-09T08:01:30Z</time>
      </trkpt>
      <trkpt lat="50.05223" lon="2.02322">
        <ele>43.2</ele>
        <time>2012-09-09T08:01:37Z</time>
      </trkpt>
      <trkpt lat="50.0525" lon="2.02319">
        <ele>45.7</ele>
        <time>2012-09-09T08:01:45Z</time>
      </trkpt>
      <trkpt lat="50.0525" lon="2.02319">
        <ele>45.7</ele>
        <time>2012-09-09T08:06:37Z</time>
      </trkpt>
      <trkpt lat="50.05262" lon="2.0231">
        <ele>48.2</ele>
        <time>2012-09-09T08:06:40Z</time>
      </trkpt>
      <trkpt lat="50.05276" lon="2.02306">
        <ele>48.2</ele>
        <time>2012-09-09T08:06:52Z</time>
      </trkpt>
      <trkpt lat="50.0529" lon="2.02302">
        <ele>48.2</ele>
        <time>2012-09-09T08:07:02Z</time>
      </trkpt>
      <trkpt lat="50.05303" lon="2.02295">
        <ele>48.2</ele>
        <time>2012-09-09T08:07:12Z</time>
      </trkpt>
      <trkpt lat="50.05316" lon="2.02289">
        <ele>48.2</ele>
        <time>2012-09-09T08:07:24Z</time>
      </trkpt>
      <trkpt lat="50.0533" lon="2.02284">
        <ele>48.2</ele>
        <time>2012-09-09T08:07:34Z</time>
      </trkpt>
      <trkpt lat="50.05344" lon="2.02278">
        <ele>45.1</ele>
        <time>2012-09-09T08:07:44Z</time>
      </trkpt>
      <trkpt lat="50.05357" lon="2.02272">
        <ele>42.4</ele>
        <time>2012-09-09T08:07:53Z</time>
      </trkpt>
      <trkpt lat="50.05371" lon="2.02264">
        <ele>38.8</ele>
        <time>2012-09-09T08:08:05Z</time>
      </trkpt>
      <trkpt lat="50.05386" lon="2.02254">
        <ele>37.2</ele>
        <time>2012-09-09T08:08:14Z</time>
      </trkpt>
      <trkpt lat="50.05398" lon="2.02243">
        <ele>37.2</ele>
        <time>2012-09-09T08:08:26Z</time>
      </trkpt>
      <trkpt lat="50.05413" lon="2.02233">
        <ele>37.2</ele>
        <time>2012-09-09T08:08:36Z</time>
      </trkpt>
      <trkpt lat="50.05427" lon="2.02228">
        <ele>37.2</ele>
        <time>2012-09-09T08:08:47Z</time>
      </trkpt>
      <trkpt lat="50.05441" lon="2.0223">
        <ele>37.2</ele>
        <time>2012-09-09T08:08:58Z</time>
      </trkpt>
      <trkpt lat="50.05453" lon="2.0224">
        <ele>39.4</ele>
        <time>2012-09-09T08:09:07Z</time>
      </trkpt>
      <trkpt lat="50.05467" lon="2.02251">
        <ele>43.8</ele>
        <time>2012-09-09T08:09:17Z</time>
      </trkpt>
      <trkpt lat="50.05479" lon="2.02264">
        <ele>48.1</ele>
        <time>2012-09-09T08:09:27Z</time>
      </trkpt>
      <trkpt lat="50.0549" lon="2.02275">
        <ele>51.6</ele>
        <time>2012-09-09T08:09:35Z</time>
      </trkpt>
      <trkpt lat="50.05503" lon="2.02286">
        <ele>52</ele>
        <time>2012-09-09T08:09:46Z</time>
      </trkpt>
      <trkpt lat="50.05516" lon="2.02294">
        <ele>52</ele>
        <time>2012-09-09T08:09:55Z</time>
      </trkpt>
      <trkpt lat="50.05529" lon="2.02304">
        <ele>52</ele>
        <time>2012-09-09T08:10:07Z</time>
      </trkpt>
      <trkpt lat="50.0554" lon="2.02317">
        <ele>52</ele>
        <time>2012-09-09T08:10:16Z</time>
      </trkpt>
      <trkpt lat="50.05555" lon="2.02324">
        <ele>52</ele>
        <time>2012-09-09T08:10:25Z</time>
      </trkpt>
      <trkpt lat="50.05568" lon="2.02331">
        <ele>52</ele>
        <time>2012-09-09T08:10:33Z</time>
      </trkpt>
      <trkpt lat="50.05581" lon="2.02338">
        <ele>52</ele>
        <time>2012-09-09T08:10:44Z</time>
      </trkpt>
      <trkpt lat="50.05595" lon="2.02344">
        <ele>52</ele>
        <time>2012-09-09T08:10:56Z</time>
      </trkpt>
      <trkpt lat="50.05608" lon="2.0235">
        <ele>52</ele>
        <time>2012-09-09T08:11:07Z</time>
      </trkpt>
      <trkpt lat="50.05622" lon="2.02349">
        <ele>52</ele>
        <time>2012-09-09T08:11:20Z</time>
      </trkpt>
      <trkpt lat="50.05636" lon="2.02348">
        <ele>52</ele>
        <time>2012-09-09T08:11:31Z</time>
      </trkpt>
      <trkpt lat="50.0565" lon="2.02352">
        <ele>52</ele>
        <time>2012-09-09T08:11:39Z</time>
      </trkpt>
      <trkpt lat="50.05664" lon="2.0235">
        <ele>52</ele>
        <time>2012-09-09T08:11:50Z</time>
      </trkpt>
      <trkpt lat="50.05677" lon="2.02344">
        <ele>52</ele>
        <time>2012-09-09T08:12:00Z</time>
      </trkpt>
      <trkpt lat="50.05691" lon="2.02341">
        <ele>52</ele>
        <time>2012-09-09T08:12:09Z</time>
      </trkpt>
      <trkpt lat="50.05704" lon="2.02339">
        <ele>52</ele>
        <time>2012-09-09T08:12:19Z</time>
      </trkpt>
      <trkpt lat="50.05718" lon="2.02343">
        <ele>52</ele>
        <time>2012-09-09T08:12:28Z</time>
      </trkpt>
      <trkpt lat="50.05732" lon="2.02348">
        <ele>52</ele>
        <time>2012-09-09T08:12:38Z</time>
      </trkpt>
      <trkpt lat="50.05749" lon="2.02353">
        <ele>52</ele>
        <time>2012-09-09T08:12:50Z</time>
      </trkpt>
      <trkpt lat="50.05763" lon="2.02358">
        <ele>52</ele>
        <time>2012-09-09T08:13:02Z</time>
      </trkpt>
      <trkpt lat="50.05777" lon="2.02362">
        <ele>52</ele>
        <time>2012-09-09T08:13:14Z</time>
      </trkpt>
      <trkpt lat="50.05792" lon="2.0237">
        <ele>52</ele>
        <time>2012-09-09T08:13:25Z</time>
      </trkpt>
      <trkpt lat="50.05805" lon="2.02373">
        <ele>52</ele>
        <time>2012-09-09T08:13:35Z</time>
      </trkpt>
      <trkpt lat="50.05819" lon="2.02374">
        <ele>52</ele>
        <time>2012-09-09T08:13:44Z</time>
      </trkpt>
      <trkpt lat="50.05833" lon="2.0237">
        <ele>52</ele>
        <time>2012-09-09T08:13:54Z</time>
      </trkpt>
      <trkpt lat="50.05845" lon="2.02359">
        <ele>52</ele>
        <time>2012-09-09T08:14:04Z</time>
      </trkpt>
      <trkpt lat="50.05857" lon="2.02346">
        <ele>52</ele>
        <time>2012-09-09T08:14:15Z</time>
      </trkpt>
      <trkpt lat="50.05869" lon="2.02333">
        <ele>52</ele>
        <time>2012-09-09T08:14:25Z</time>
      </trkpt>
      <trkpt lat="50.05879" lon="2.02319">
        <ele>52</ele>
        <time>2012-09-09T08:14:35Z</time>
      </trkpt>
      <trkpt lat="50.05887" lon="2.02302">
        <ele>52</ele>
        <time>2012-09-09T08:14:46Z</time>
      </trkpt>
      <trkpt lat="50.05894" lon="2.02283">
        <ele>52</ele>
        <time>2012-09-09T08:14:56Z</time>
      </trkpt>
      <trkpt lat="50.05903" lon="2.02265">
        <ele>52</ele>
        <time>2012-09-09T08:15:06Z</time>
      </trkpt>
      <trkpt lat="50.0591" lon="2.02247">
        <ele>52</ele>
        <time>2012-09-09T08:15:16Z</time>
      </trkpt>
      <trkpt lat="50.0592" lon="2.02229">
        <ele>52</ele>
        <time>2012-09-09T08:15:26Z</time>
      </trkpt>
      <trkpt lat="50.05928" lon="2.0221">
        <ele>52</ele>
        <time>2012-09-09T08:15:37Z</time>
      </trkpt>
      <trkpt lat="50.05935" lon="2.02187">
        <ele>52</ele>
        <time>2012-09-09T08:15:46Z</time>
      </trkpt>
      <trkpt lat="50.05934" lon="2.02166">
        <ele>52</ele>
        <time>2012-09-09T08:15:56Z</time>
      </trkpt>
      <trkpt lat="50.05941" lon="2.02146">
        <ele>52</ele>
        <time>2012-09-09T08:16:06Z</time>
      </trkpt>
      <trkpt lat="50.05952" lon="2.02129">
        <ele>52</ele>
        <time>2012-09-09T08:16:17Z</time>
      </trkpt>
      <trkpt lat="50.05962" lon="2.02114">
        <ele>52</ele>
        <time>2012-09-09T08:16:26Z</time>
      </trkpt>
      <trkpt lat="50.05972" lon="2.021">
        <ele>52</ele>
        <time>2012-09-09T08:16:36Z</time>
      </trkpt>
      <trkpt lat="50.05984" lon="2.02087">
        <ele>52</ele>
        <time>2012-09-09T08:16:47Z</time>
      </trkpt>
      <trkpt lat="50.05992" lon="2.02069">
        <ele>52</ele>
        <time>2012-09-09T08:16:55Z</time>
      </trkpt>
      <trkpt lat="50.06003" lon="2.0205">
        <ele>52</ele>
        <time>2012-09-09T08:17:06Z</time>
      </trkpt>
      <trkpt lat="50.06014" lon="2.02033">
        <ele>52</ele>
        <time>2012-09-09T08:17:18Z</time>
      </trkpt>
      <trkpt lat="50.06022" lon="2.02014">
        <ele>55.6</ele>
        <time>2012-09-09T08:17:29Z</time>
      </trkpt>
      <trkpt lat="50.0603" lon="2.01996">
        <ele>60.4</ele>
        <time>2012-09-09T08:17:38Z</time>
      </trkpt>
      <trkpt lat="50.06039" lon="2.01978">
        <ele>63.5</ele>
        <time>2012-09-09T08:17:48Z</time>
      </trkpt>
      <trkpt lat="50.06045" lon="2.01958">
        <ele>63.5</ele>
        <time>2012-09-09T08:17:59Z</time>
      </trkpt>
      <trkpt lat="50.06052" lon="2.01939">
        <ele>63.5</ele>
        <time>2012-09-09T08:18:08Z</time>
      </trkpt>
      <trkpt lat="50.06061" lon="2.01922">
        <ele>63.5</ele>
        <time>2012-09-09T08:18:19Z</time>
      </trkpt>
      <trkpt lat="50.0606" lon="2.019">
        <ele>63.5</ele>
        <time>2012-09-09T08:18:32Z</time>
      </trkpt>
      <trkpt lat="50.06056" lon="2.01879">
        <ele>63.5</ele>
        <time>2012-09-09T08:18:43Z</time>
      </trkpt>
      <trkpt lat="50.06054" lon="2.01858">
        <ele>63.5</ele>
        <time>2012-09-09T08:18:54Z</time>
      </trkpt>
      <trkpt lat="50.06056" lon="2.01837">
        <ele>63.5</ele>
        <time>2012-09-09T08:19:03Z</time>
      </trkpt>
      <trkpt lat="50.06057" lon="2.01816">
        <ele>63.5</ele>
        <time>2012-09-09T08:19:16Z</time>
      </trkpt>
      <trkpt lat="50.06064" lon="2.01796">
        <ele>63.5</ele>
        <time>2012-09-09T08:19:26Z</time>
      </trkpt>
      <trkpt lat="50.06071" lon="2.01776">
        <ele>63.5</ele>
        <time>2012-09-09T08:19:43Z</time>
      </trkpt>
      <trkpt lat="50.06079" lon="2.01758">
        <ele>63.5</ele>
        <time>2012-09-09T08:19:47Z</time>
      </trkpt>
      <trkpt lat="50.06091" lon="2.01725">
        <ele>60.8</ele>
        <time>2012-09-09T08:20:00Z</time>
      </trkpt>
      <trkpt lat="50.06091" lon="2.01725">
        <ele>60.8</ele>
        <time>2012-09-09T08:33:03Z</time>
      </trkpt>
      <trkpt lat="50.06096" lon="2.0171">
        <ele>58</ele>
        <time>2012-09-09T08:33:07Z</time>
      </trkpt>
      <trkpt lat="50.06105" lon="2.01694">
        <ele>64.7</ele>
        <time>2012-09-09T08:33:20Z</time>
      </trkpt>
      <trkpt lat="50.06114" lon="2.01677">
        <ele>69.3</ele>
        <time>2012-09-09T08:33:31Z</time>
      </trkpt>
      <trkpt lat="50.06118" lon="2.01655">
        <ele>69.3</ele>
        <time>2012-09-09T08:33:42Z</time>
      </trkpt>
      <trkpt lat="50.06123" lon="2.01627">
        <ele>66.8</ele>
        <time>2012-09-09T08:33:54Z</time>
      </trkpt>
      <trkpt lat="50.06128" lon="2.01608">
        <ele>57</ele>
        <time>2012-09-09T08:34:07Z</time>
      </trkpt>
      <trkpt lat="50.06134" lon="2.01588">
        <ele>57</ele>
        <time>2012-09-09T08:34:20Z</time>
      </trkpt>
      <trkpt lat="50.06135" lon="2.01572">
        <ele>57</ele>
        <time>2012-09-09T08:34:28Z</time>
      </trkpt>
      <trkpt lat="50.06122" lon="2.01562">
        <ele>57</ele>
        <time>2012-09-09T08:34:40Z</time>
      </trkpt>
      <trkpt lat="50.06108" lon="2.01558">
        <ele>61.6</ele>
        <time>2012-09-09T08:34:50Z</time>
      </trkpt>
      <trkpt lat="50.06094" lon="2.01554">
        <ele>67.1</ele>
        <time>2012-09-09T08:35:01Z</time>
      </trkpt>
      <trkpt lat="50.0608" lon="2.01548">
        <ele>69.3</ele>
        <time>2012-09-09T08:35:11Z</time>
      </trkpt>
      <trkpt lat="50.06066" lon="2.01541">
        <ele>75</ele>
        <time>2012-09-09T08:35:25Z</time>
      </trkpt>
      <trkpt lat="50.06051" lon="2.01538">
        <ele>81.1</ele>
        <time>2012-09-09T08:35:40Z</time>
      </trkpt>
      <trkpt lat="50.06036" lon="2.01538">
        <ele>81.9</ele>
        <time>2012-09-09T08:35:56Z</time>
      </trkpt>
      <trkpt lat="50.06029" lon="2.01542">
        <ele>81.9</ele>
        <time>2012-09-09T08:36:09Z</time>
      </trkpt>
      <trkpt lat="50.06014" lon="2.0153">
        <ele>81.9</ele>
        <time>2012-09-09T08:36:20Z</time>
      </trkpt>
      <trkpt lat="50.06001" lon="2.01517">
        <ele>81.9</ele>
        <time>2012-09-09T08:36:39Z</time>
      </trkpt>
      <trkpt lat="50.05988" lon="2.01507">
        <ele>81.9</ele>
        <time>2012-09-09T08:36:46Z</time>
      </trkpt>
      <trkpt lat="50.05974" lon="2.01496">
        <ele>81.9</ele>
        <time>2012-09-09T08:36:56Z</time>
      </trkpt>
      <trkpt lat="50.0596" lon="2.01489">
        <ele>81.9</ele>
        <time>2012-09-09T08:37:05Z</time>
      </trkpt>
      <trkpt lat="50.05946" lon="2.01479">
        <ele>81.9</ele>
        <time>2012-09-09T08:37:18Z</time>
      </trkpt>
      <trkpt lat="50.05934" lon="2.01466">
        <ele>81.9</ele>
        <time>2012-09-09T08:37:29Z</time>
      </trkpt>
      <trkpt lat="50.05923" lon="2.01452">
        <ele>81.9</ele>
        <time>2012-09-09T08:37:41Z</time>
      </trkpt>
      <trkpt lat="50.05912" lon="2.01438">
        <ele>85.9</ele>
        <time>2012-09-09T08:37:51Z</time>
      </trkpt>
      <trkpt lat="50.05901" lon="2.01425">
        <ele>90.2</ele>
        <time>2012-09-09T08:38:02Z</time>
      </trkpt>
      <trkpt lat="50.0589" lon="2.01412">
        <ele>93</ele>
        <time>2012-09-09T08:38:12Z</time>
      </trkpt>
      <trkpt lat="50.05881" lon="2.01395">
        <ele>93</ele>
        <time>2012-09-09T08:38:23Z</time>
      </trkpt>
      <trkpt lat="50.05873" lon="2.01376">
        <ele>93</ele>
        <time>2012-09-09T08:38:33Z</time>
      </trkpt>
      <trkpt lat="50.05866" lon="2.01356">
        <ele>93</ele>
        <time>2012-09-09T08:38:44Z</time>
      </trkpt>
      <trkpt lat="50.05861" lon="2.01335">
        <ele>93</ele>
        <time>2012-09-09T08:38:54Z</time>
      </trkpt>
      <trkpt lat="50.05854" lon="2.01316">
        <ele>93</ele>
        <time>2012-09-09T08:39:05Z</time>
      </trkpt>
      <trkpt lat="50.05841" lon="2.01309">
        <ele>93</ele>
        <time>2012-09-09T08:39:14Z</time>
      </trkpt>
      <trkpt lat="50.05828" lon="2.01306">
        <ele>93</ele>
        <time>2012-09-09T08:39:23Z</time>
      </trkpt>
      <trkpt lat="50.05814" lon="2.01302">
        <ele>93</ele>
        <time>2012-09-09T08:39:33Z</time>
      </trkpt>
      <trkpt lat="50.058" lon="2.01299">
        <ele>93</ele>
        <time>2012-09-09T08:39:43Z</time>
      </trkpt>
      <trkpt lat="50.05786" lon="2.01293">
        <ele>93</ele>
        <time>2012-09-09T08:39:53Z</time>
      </trkpt>
      <trkpt lat="50.05772" lon="2.01286">
        <ele>93</ele>
        <time>2012-09-09T08:40:04Z</time>
      </trkpt>
      <trkpt lat="50.05759" lon="2.01279">
        <ele>93</ele>
        <time>2012-09-09T08:40:14Z</time>
      </trkpt>
      <trkpt lat="50.05747" lon="2.0127">
        <ele>93</ele>
        <time>2012-09-09T08:40:24Z</time>
      </trkpt>
      <trkpt lat="50.05736" lon="2.01258">
        <ele>93</ele>
        <time>2012-09-09T08:40:34Z</time>
      </trkpt>
      <trkpt lat="50.05723" lon="2.01245">
        <ele>93</ele>
        <time>2012-09-09T08:40:45Z</time>
      </trkpt>
      <trkpt lat="50.05711" lon="2.01233">
        <ele>93</ele>
        <time>2012-09-09T08:40:55Z</time>
      </trkpt>
      <trkpt lat="50.057" lon="2.01221">
        <ele>93</ele>
        <time>2012-09-09T08:41:06Z</time>
      </trkpt>
      <trkpt lat="50.0569" lon="2.01205">
        <ele>93</ele>
        <time>2012-09-09T08:41:16Z</time>
      </trkpt>
      <trkpt lat="50.05679" lon="2.01191">
        <ele>93</ele>
        <time>2012-09-09T08:41:26Z</time>
      </trkpt>
      <trkpt lat="50.05668" lon="2.01179">
        <ele>93</ele>
        <time>2012-09-09T08:41:36Z</time>
      </trkpt>
      <trkpt lat="50.05657" lon="2.01166">
        <ele>93.7</ele>
        <time>2012-09-09T08:41:46Z</time>
      </trkpt>
      <trkpt lat="50.05646" lon="2.01151">
        <ele>94.5</ele>
        <time>2012-09-09T08:41:57Z</time>
      </trkpt>
      <trkpt lat="50.05637" lon="2.01135">
        <ele>95.2</ele>
        <time>2012-09-09T08:42:07Z</time>
      </trkpt>
      <trkpt lat="50.05627" lon="2.01118">
        <ele>96</ele>
        <time>2012-09-09T08:42:18Z</time>
      </trkpt>
      <trkpt lat="50.05611" lon="2.01106">
        <ele>96.5</ele>
        <time>2012-09-09T08:42:33Z</time>
      </trkpt>
      <trkpt lat="50.05611" lon="2.01106">
        <ele>96.5</ele>
        <time>2012-09-09T08:45:51Z</time>
      </trkpt>
      <trkpt lat="50.05604" lon="2.0111">
        <ele>96.2</ele>
        <time>2012-09-09T08:45:53Z</time>
      </trkpt>
      <trkpt lat="50.05601" lon="2.01131">
        <ele>94.6</ele>
        <time>2012-09-09T08:46:02Z</time>
      </trkpt>
      <trkpt lat="50.05595" lon="2.01151">
        <ele>94.6</ele>
        <time>2012-09-09T08:46:14Z</time>
      </trkpt>
      <trkpt lat="50.05589" lon="2.01172">
        <ele>94.6</ele>
        <time>2012-09-09T08:46:24Z</time>
      </trkpt>
      <trkpt lat="50.05583" lon="2.01191">
        <ele>94.6</ele>
        <time>2012-09-09T08:46:29Z</time>
      </trkpt>
      <trkpt lat="50.05575" lon="2.01212">
        <ele>94.6</ele>
        <time>2012-09-09T08:46:39Z</time>
      </trkpt>
      <trkpt lat="50.0557" lon="2.01234">
        <ele>94.6</ele>
        <time>2012-09-09T08:46:49Z</time>
      </trkpt>
      <trkpt lat="50.05566" lon="2.01256">
        <ele>94.6</ele>
        <time>2012-09-09T08:46:58Z</time>
      </trkpt>
      <trkpt lat="50.05559" lon="2.01276">
        <ele>94.6</ele>
        <time>2012-09-09T08:47:09Z</time>
      </trkpt>
      <trkpt lat="50.05552" lon="2.01295">
        <ele>94.6</ele>
        <time>2012-09-09T08:47:19Z</time>
      </trkpt>
      <trkpt lat="50.05547" lon="2.01315">
        <ele>94.6</ele>
        <time>2012-09-09T08:47:29Z</time>
      </trkpt>
      <trkpt lat="50.05541" lon="2.01334">
        <ele>94.6</ele>
        <time>2012-09-09T08:47:39Z</time>
      </trkpt>
      <trkpt lat="50.05536" lon="2.01353">
        <ele>94.6</ele>
        <time>2012-09-09T08:47:49Z</time>
      </trkpt>
      <trkpt lat="50.05529" lon="2.01373">
        <ele>94.6</ele>
        <time>2012-09-09T08:47:59Z</time>
      </trkpt>
      <trkpt lat="50.05523" lon="2.01391">
        <ele>94.6</ele>
        <time>2012-09-09T08:48:08Z</time>
      </trkpt>
      <trkpt lat="50.05517" lon="2.01411">
        <ele>94.6</ele>
        <time>2012-09-09T08:48:18Z</time>
      </trkpt>
      <trkpt lat="50.05512" lon="2.01431">
        <ele>94.6</ele>
        <time>2012-09-09T08:48:28Z</time>
      </trkpt>
      <trkpt lat="50.05506" lon="2.0145">
        <ele>94.6</ele>
        <time>2012-09-09T08:48:38Z</time>
      </trkpt>
      <trkpt lat="50.05499" lon="2.01468">
        <ele>94.6</ele>
        <time>2012-09-09T08:48:47Z</time>
      </trkpt>
      <trkpt lat="50.05495" lon="2.0149">
        <ele>94.6</ele>
        <time>2012-09-09T08:48:57Z</time>
      </trkpt>
      <trkpt lat="50.0549" lon="2.0151">
        <ele>94.6</ele>
        <time>2012-09-09T08:49:07Z</time>
      </trkpt>
      <trkpt lat="50.05484" lon="2.0153">
        <ele>94.6</ele>
        <time>2012-09-09T08:49:18Z</time>
      </trkpt>
      <trkpt lat="50.05477" lon="2.0155">
        <ele>94.6</ele>
        <time>2012-09-09T08:49:28Z</time>
      </trkpt>
      <trkpt lat="50.0547" lon="2.01571">
        <ele>94.6</ele>
        <time>2012-09-09T08:49:39Z</time>
      </trkpt>
      <trkpt lat="50.05464" lon="2.0159">
        <ele>94.6</ele>
        <time>2012-09-09T08:49:49Z</time>
      </trkpt>
      <trkpt lat="50.0546" lon="2.01611">
        <ele>94.6</ele>
        <time>2012-09-09T08:49:59Z</time>
      </trkpt>
      <trkpt lat="50.05453" lon="2.01631">
        <ele>94.6</ele>
        <time>2012-09-09T08:50:09Z</time>
      </trkpt>
      <trkpt lat="50.05447" lon="2.0165">
        <ele>94.6</ele>
        <time>2012-09-09T08:50:19Z</time>
      </trkpt>
      <trkpt lat="50.05441" lon="2.01671">
        <ele>94.6</ele>
        <time>2012-09-09T08:50:29Z</time>
      </trkpt>
      <trkpt lat="50.05435" lon="2.01691">
        <ele>94.6</ele>
        <time>2012-09-09T08:50:39Z</time>
      </trkpt>
      <trkpt lat="50.0543" lon="2.01712">
        <ele>94.6</ele>
        <time>2012-09-09T08:50:49Z</time>
      </trkpt>
      <trkpt lat="50.05423" lon="2.01732">
        <ele>94.6</ele>
        <time>2012-09-09T08:50:59Z</time>
      </trkpt>
      <trkpt lat="50.05417" lon="2.01752">
        <ele>90.9</ele>
        <time>2012-09-09T08:51:10Z</time>
      </trkpt>
      <trkpt lat="50.05411" lon="2.01773">
        <ele>85.1</ele>
        <time>2012-09-09T08:51:21Z</time>
      </trkpt>
      <trkpt lat="50.05405" lon="2.01792">
        <ele>83.5</ele>
        <time>2012-09-09T08:51:31Z</time>
      </trkpt>
      <trkpt lat="50.05399" lon="2.01811">
        <ele>83.5</ele>
        <time>2012-09-09T08:51:41Z</time>
      </trkpt>
      <trkpt lat="50.05394" lon="2.01832">
        <ele>83.5</ele>
        <time>2012-09-09T08:51:51Z</time>
      </trkpt>
      <trkpt lat="50.05388" lon="2.01851">
        <ele>83.5</ele>
        <time>2012-09-09T08:52:01Z</time>
      </trkpt>
      <trkpt lat="50.05383" lon="2.01872">
        <ele>83.5</ele>
        <time>2012-09-09T08:52:11Z</time>
      </trkpt>
      <trkpt lat="50.05377" lon="2.01892">
        <ele>83.5</ele>
        <time>2012-09-09T08:52:21Z</time>
      </trkpt>
      <trkpt lat="50.0537" lon="2.01913">
        <ele>83.5</ele>
        <time>2012-09-09T08:52:31Z</time>
      </trkpt>
      <trkpt lat="50.05364" lon="2.01933">
        <ele>72.4</ele>
        <time>2012-09-09T08:52:42Z</time>
      </trkpt>
      <trkpt lat="50.05357" lon="2.01952">
        <ele>71.1</ele>
        <time>2012-09-09T08:52:53Z</time>
      </trkpt>
      <trkpt lat="50.05352" lon="2.01972">
        <ele>71.1</ele>
        <time>2012-09-09T08:53:03Z</time>
      </trkpt>
      <trkpt lat="50.05346" lon="2.01991">
        <ele>71.1</ele>
        <time>2012-09-09T08:53:13Z</time>
      </trkpt>
      <trkpt lat="50.05339" lon="2.02015">
        <ele>71.1</ele>
        <time>2012-09-09T08:53:27Z</time>
      </trkpt>
      <trkpt lat="50.05335" lon="2.02035">
        <ele>71.1</ele>
        <time>2012-09-09T08:53:38Z</time>
      </trkpt>
      <trkpt lat="50.05331" lon="2.02056">
        <ele>71.1</ele>
        <time>2012-09-09T08:53:48Z</time>
      </trkpt>
      <trkpt lat="50.05325" lon="2.02079">
        <ele>60.5</ele>
        <time>2012-09-09T08:54:00Z</time>
      </trkpt>
      <trkpt lat="50.0532" lon="2.02099">
        <ele>60.5</ele>
        <time>2012-09-09T08:54:12Z</time>
      </trkpt>
      <trkpt lat="50.05313" lon="2.02117">
        <ele>60.5</ele>
        <time>2012-09-09T08:54:22Z</time>
      </trkpt>
      <trkpt lat="50.05305" lon="2.02136">
        <ele>60.5</ele>
        <time>2012-09-09T08:54:35Z</time>
      </trkpt>
      <trkpt lat="50.05297" lon="2.02152">
        <ele>60.5</ele>
        <time>2012-09-09T08:54:46Z</time>
      </trkpt>
      <trkpt lat="50.05293" lon="2.02174">
        <ele>60.5</ele>
        <time>2012-09-09T08:54:55Z</time>
      </trkpt>
      <trkpt lat="50.05287" lon="2.02195">
        <ele>47.8</ele>
        <time>2012-09-09T08:55:08Z</time>
      </trkpt>
      <trkpt lat="50.05281" lon="2.02215">
        <ele>47.8</ele>
        <time>2012-09-09T08:55:19Z</time>
      </trkpt>
      <trkpt lat="50.05275" lon="2.02235">
        <ele>47.8</ele>
        <time>2012-09-09T08:55:30Z</time>
      </trkpt>
      <trkpt lat="50.05269" lon="2.02256">
        <ele>47.8</ele>
        <time>2012-09-09T08:55:40Z</time>
      </trkpt>
      <trkpt lat="50.05262" lon="2.02276">
        <ele>47.8</ele>
        <time>2012-09-09T08:55:53Z</time>
      </trkpt>
      <trkpt lat="50.05242" lon="2.02302">
        <ele>47.8</ele>
        <time>2012-09-09T08:56:15Z</time>
      </trkpt>
      <trkpt lat="50.05242" lon="2.02302">
        <ele>47.8</ele>
        <time>2012-09-09T08:57:45Z</time>
      </trkpt>
      <trkpt lat="50.0523" lon="2.0231">
        <ele>47.8</ele>
        <time>2012-09-09T08:57:48Z</time>
      </trkpt>
      <trkpt lat="50.05216" lon="2.02302">
        <ele>47.8</ele>
        <time>2012-09-09T08:57:58Z</time>
      </trkpt>
      <trkpt lat="50.05202" lon="2.02293">
        <ele>47.8</ele>
        <time>2012-09-09T08:58:09Z</time>
      </trkpt>
      <trkpt lat="50.05188" lon="2.02285">
        <ele>47.8</ele>
        <time>2012-09-09T08:58:20Z</time>
      </trkpt>
      <trkpt lat="50.05177" lon="2.02273">
        <ele>47.8</ele>
        <time>2012-09-09T08:58:30Z</time>
      </trkpt>
      <trkpt lat="50.05164" lon="2.02262">
        <ele>47.8</ele>
        <time>2012-09-09T08:58:39Z</time>
      </trkpt>
      <trkpt lat="50.0515" lon="2.02249">
        <ele>47.8</ele>
        <time>2012-09-09T08:58:50Z</time>
      </trkpt>
      <trkpt lat="50.05137" lon="2.02241">
        <ele>47.8</ele>
        <time>2012-09-09T08:59:01Z</time>
      </trkpt>
      <trkpt lat="50.05124" lon="2.02231">
        <ele>47.8</ele>
        <time>2012-09-09T08:59:11Z</time>
      </trkpt>
      <trkpt lat="50.05113" lon="2.02216">
        <ele>47.8</ele>
        <time>2012-09-09T08:59:20Z</time>
      </trkpt>
      <trkpt lat="50.05102" lon="2.02198">
        <ele>42.2</ele>
        <time>2012-09-09T08:59:31Z</time>
      </trkpt>
      <trkpt lat="50.05094" lon="2.02181">
        <ele>31.1</ele>
        <time>2012-09-09T08:59:43Z</time>
      </trkpt>
      <trkpt lat="50.05086" lon="2.02162">
        <ele>33.7</ele>
        <time>2012-09-09T08:59:52Z</time>
      </trkpt>
      <trkpt lat="50.05077" lon="2.02145">
        <ele>39.2</ele>
        <time>2012-09-09T09:00:02Z</time>
      </trkpt>
      <trkpt lat="50.05068" lon="2.02128">
        <ele>43</ele>
        <time>2012-09-09T09:00:12Z</time>
      </trkpt>
      <trkpt lat="50.05058" lon="2.02112">
        <ele>43</ele>
        <time>2012-09-09T09:00:22Z</time>
      </trkpt>
      <trkpt lat="50.05049" lon="2.02094">
        <ele>43</ele>
        <time>2012-09-09T09:00:32Z</time>
      </trkpt>
      <trkpt lat="50.05041" lon="2.02076">
        <ele>43</ele>
        <time>2012-09-09T09:00:43Z</time>
      </trkpt>
      <trkpt lat="50.05029" lon="2.0206">
        <ele>43</ele>
        <time>2012-09-09T09:00:53Z</time>
      </trkpt>
      <trkpt lat="50.05016" lon="2.02046">
        <ele>43</ele>
        <time>2012-09-09T09:01:04Z</time>
      </trkpt>
      <trkpt lat="50.05003" lon="2.02038">
        <ele>43</ele>
        <time>2012-09-09T09:01:16Z</time>
      </trkpt>
      <trkpt lat="50.04919" lon="2.01974">
        <ele>43</ele>
        <time>2012-09-09T09:01:39Z</time>
      </trkpt>
      <trkpt lat="50.04908" lon="2.0196">
        <ele>43</ele>
        <time>2012-09-09T09:02:26Z</time>
      </trkpt>
      <trkpt lat="50.04896" lon="2.0195">
        <ele>43</ele>
        <time>2012-09-09T09:02:37Z</time>
      </trkpt>
      <trkpt lat="50.04882" lon="2.01951">
        <ele>43</ele>
        <time>2012-09-09T09:02:49Z</time>
      </trkpt>
      <trkpt lat="50.0487" lon="2.0196">
        <ele>43</ele>
        <time>2012-09-09T09:03:00Z</time>
      </trkpt>
      <trkpt lat="50.0486" lon="2.01976">
        <ele>43</ele>
        <time>2012-09-09T09:03:11Z</time>
      </trkpt>
      <trkpt lat="50.0485" lon="2.01993">
        <ele>43</ele>
        <time>2012-09-09T09:03:21Z</time>
      </trkpt>
      <trkpt lat="50.04835" lon="2.01997">
        <ele>42.3</ele>
        <time>2012-09-09T09:03:29Z</time>
      </trkpt>
      <trkpt lat="50.0482" lon="2.01999">
        <ele>34.4</ele>
        <time>2012-09-09T09:03:40Z</time>
      </trkpt>
      <trkpt lat="50.04806" lon="2.01999">
        <ele>30.1</ele>
        <time>2012-09-09T09:03:51Z</time>
      </trkpt>
      <trkpt lat="50.04792" lon="2.02">
        <ele>30.1</ele>
        <time>2012-09-09T09:04:00Z</time>
      </trkpt>
      <trkpt lat="50.04778" lon="2.01997">
        <ele>30.1</ele>
        <time>2012-09-09T09:04:09Z</time>
      </trkpt>
      <trkpt lat="50.04764" lon="2.01989">
        <ele>30.1</ele>
        <time>2012-09-09T09:04:20Z</time>
      </trkpt>
      <trkpt lat="50.04748" lon="2.01986">
        <ele>30.1</ele>
        <time>2012-09-09T09:04:32Z</time>
      </trkpt>
      <trkpt lat="50.04734" lon="2.01984">
        <ele>30.1</ele>
        <time>2012-09-09T09:04:45Z</time>
      </trkpt>
      <trkpt lat="50.0472" lon="2.01981">
        <ele>30.1</ele>
        <time>2012-09-09T09:04:55Z</time>
      </trkpt>
      <trkpt lat="50.04706" lon="2.01979">
        <ele>30.1</ele>
        <time>2012-09-09T09:05:05Z</time>
      </trkpt>
      <trkpt lat="50.04692" lon="2.01978">
        <ele>30.1</ele>
        <time>2012-09-09T09:05:14Z</time>
      </trkpt>
      <trkpt lat="50.04679" lon="2.01979">
        <ele>30.1</ele>
        <time>2012-09-09T09:05:24Z</time>
      </trkpt>
      <trkpt lat="50.04664" lon="2.01982">
        <ele>30.1</ele>
        <time>2012-09-09T09:05:36Z</time>
      </trkpt>
      <trkpt lat="50.0465" lon="2.01985">
        <ele>30.1</ele>
        <time>2012-09-09T09:05:48Z</time>
      </trkpt>
      <trkpt lat="50.04636" lon="2.0199">
        <ele>30.1</ele>
        <time>2012-09-09T09:05:57Z</time>
      </trkpt>
      <trkpt lat="50.04622" lon="2.01994">
        <ele>30.1</ele>
        <time>2012-09-09T09:06:07Z</time>
      </trkpt>
      <trkpt lat="50.04608" lon="2.01999">
        <ele>30.1</ele>
        <time>2012-09-09T09:06:16Z</time>
      </trkpt>
      <trkpt lat="50.04596" lon="2.0201">
        <ele>30.1</ele>
        <time>2012-09-09T09:06:26Z</time>
      </trkpt>
      <trkpt lat="50.04587" lon="2.02026">
        <ele>30.1</ele>
        <time>2012-09-09T09:06:37Z</time>
      </trkpt>
      <trkpt lat="50.04582" lon="2.02047">
        <ele>30.1</ele>
        <time>2012-09-09T09:06:47Z</time>
      </trkpt>
      <trkpt lat="50.04576" lon="2.02067">
        <ele>30.1</ele>
        <time>2012-09-09T09:06:57Z</time>
      </trkpt>
      <trkpt lat="50.04571" lon="2.02087">
        <ele>30.1</ele>
        <time>2012-09-09T09:07:06Z</time>
      </trkpt>
      <trkpt lat="50.04565" lon="2.02108">
        <ele>29.4</ele>
        <time>2012-09-09T09:07:16Z</time>
      </trkpt>
      <trkpt lat="50.0456" lon="2.02128">
        <ele>23.5</ele>
        <time>2012-09-09T09:07:25Z</time>
      </trkpt>
      <trkpt lat="50.04556" lon="2.02149">
        <ele>19.6</ele>
        <time>2012-09-09T09:07:33Z</time>
      </trkpt>
      <trkpt lat="50.04552" lon="2.0217">
        <ele>19.6</ele>
        <time>2012-09-09T09:07:45Z</time>
      </trkpt>
      <trkpt lat="50.04547" lon="2.0219">
        <ele>19.6</ele>
        <time>2012-09-09T09:07:55Z</time>
      </trkpt>
      <trkpt lat="50.0454" lon="2.0221">
        <ele>19.6</ele>
        <time>2012-09-09T09:08:05Z</time>
      </trkpt>
      <trkpt lat="50.0453" lon="2.02227">
        <ele>19.6</ele>
        <time>2012-09-09T09:08:14Z</time>
      </trkpt>
      <trkpt lat="50.04518" lon="2.02247">
        <ele>19.6</ele>
        <time>2012-09-09T09:08:24Z</time>
      </trkpt>
      <trkpt lat="50.04508" lon="2.02263">
        <ele>19.6</ele>
        <time>2012-09-09T09:08:36Z</time>
      </trkpt>
      <trkpt lat="50.04497" lon="2.02276">
        <ele>19.6</ele>
        <time>2012-09-09T09:08:45Z</time>
      </trkpt>
      <trkpt lat="50.04485" lon="2.02289">
        <ele>19.6</ele>
        <time>2012-09-09T09:08:55Z</time>
      </trkpt>
      <trkpt lat="50.04474" lon="2.02301">
        <ele>19.6</ele>
        <time>2012-09-09T09:09:05Z</time>
      </trkpt>
      <trkpt lat="50.04462" lon="2.02314">
        <ele>19.6</ele>
        <time>2012-09-09T09:09:15Z</time>
      </trkpt>
      <trkpt lat="50.04451" lon="2.02326">
        <ele>19.6</ele>
        <time>2012-09-09T09:09:25Z</time>
      </trkpt>
      <trkpt lat="50.04439" lon="2.02339">
        <ele>19.6</ele>
        <time>2012-09-09T09:09:34Z</time>
      </trkpt>
      <trkpt lat="50.04429" lon="2.02353">
        <ele>19.6</ele>
        <time>2012-09-09T09:09:41Z</time>
      </trkpt>
      <trkpt lat="50.04417" lon="2.02364">
        <ele>19.6</ele>
        <time>2012-09-09T09:09:53Z</time>
      </trkpt>
      <trkpt lat="50.04403" lon="2.02372">
        <ele>19.6</ele>
        <time>2012-09-09T09:10:02Z</time>
      </trkpt>
      <trkpt lat="50.04386" lon="2.02374">
        <ele>19.6</ele>
        <time>2012-09-09T09:10:11Z</time>
      </trkpt>
      <trkpt lat="50.04373" lon="2.02369">
        <ele>19.6</ele>
        <time>2012-09-09T09:10:21Z</time>
      </trkpt>
      <trkpt lat="50.04361" lon="2.0236">
        <ele>19.6</ele>
        <time>2012-09-09T09:10:31Z</time>
      </trkpt>
      <trkpt lat="50.04346" lon="2.02353">
        <ele>19.6</ele>
        <time>2012-09-09T09:10:41Z</time>
      </trkpt>
      <trkpt lat="50.04332" lon="2.02345">
        <ele>19.6</ele>
        <time>2012-09-09T09:10:52Z</time>
      </trkpt>
      <trkpt lat="50.04318" lon="2.02338">
        <ele>19.6</ele>
        <time>2012-09-09T09:11:02Z</time>
      </trkpt>
      <trkpt lat="50.04304" lon="2.0233">
        <ele>19.6</ele>
        <time>2012-09-09T09:11:12Z</time>
      </trkpt>
      <trkpt lat="50.04289" lon="2.02324">
        <ele>19.6</ele>
        <time>2012-09-09T09:11:23Z</time>
      </trkpt>
      <trkpt lat="50.04276" lon="2.0232">
        <ele>20.6</ele>
        <time>2012-09-09T09:11:34Z</time>
      </trkpt>
      <trkpt lat="50.0426" lon="2.02315">
        <ele>22.7</ele>
        <time>2012-09-09T09:11:44Z</time>
      </trkpt>
      <trkpt lat="50.04245" lon="2.0231">
        <ele>25.2</ele>
        <time>2012-09-09T09:11:56Z</time>
      </trkpt>
      <trkpt lat="50.04231" lon="2.02312">
        <ele>27.5</ele>
        <time>2012-09-09T09:12:07Z</time>
      </trkpt>
      <trkpt lat="50.04219" lon="2.02323">
        <ele>29.8</ele>
        <time>2012-09-09T09:12:18Z</time>
      </trkpt>
      <trkpt lat="50.04206" lon="2.02335">
        <ele>30.2</ele>
        <time>2012-09-09T09:12:28Z</time>
      </trkpt>
      <trkpt lat="50.04196" lon="2.02348">
        <ele>30.2</ele>
        <time>2012-09-09T09:12:37Z</time>
      </trkpt>
      <trkpt lat="50.04185" lon="2.02363">
        <ele>30.2</ele>
        <time>2012-09-09T09:12:47Z</time>
      </trkpt>
      <trkpt lat="50.04177" lon="2.02383">
        <ele>30.2</ele>
        <time>2012-09-09T09:12:57Z</time>
      </trkpt>
      <trkpt lat="50.0417" lon="2.02401">
        <ele>30.2</ele>
        <time>2012-09-09T09:13:07Z</time>
      </trkpt>
      <trkpt lat="50.04162" lon="2.02421">
        <ele>30.2</ele>
        <time>2012-09-09T09:13:17Z</time>
      </trkpt>
      <trkpt lat="50.04155" lon="2.02439">
        <ele>30.2</ele>
        <time>2012-09-09T09:13:26Z</time>
      </trkpt>
      <trkpt lat="50.04145" lon="2.02458">
        <ele>30.2</ele>
        <time>2012-09-09T09:13:37Z</time>
      </trkpt>
      <trkpt lat="50.04138" lon="2.02476">
        <ele>30.2</ele>
        <time>2012-09-09T09:13:47Z</time>
      </trkpt>
      <trkpt lat="50.04129" lon="2.02492">
        <ele>30.2</ele>
        <time>2012-09-09T09:13:56Z</time>
      </trkpt>
      <trkpt lat="50.0412" lon="2.02508">
        <ele>30.2</ele>
        <time>2012-09-09T09:14:05Z</time>
      </trkpt>
      <trkpt lat="50.0411" lon="2.02524">
        <ele>30.2</ele>
        <time>2012-09-09T09:14:15Z</time>
      </trkpt>
      <trkpt lat="50.04101" lon="2.02541">
        <ele>30.2</ele>
        <time>2012-09-09T09:14:26Z</time>
      </trkpt>
      <trkpt lat="50.04092" lon="2.02558">
        <ele>30.2</ele>
        <time>2012-09-09T09:14:35Z</time>
      </trkpt>
      <trkpt lat="50.04081" lon="2.02572">
        <ele>30.2</ele>
        <time>2012-09-09T09:14:45Z</time>
      </trkpt>
      <trkpt lat="50.0407" lon="2.02583">
        <ele>30.2</ele>
        <time>2012-09-09T09:14:54Z</time>
      </trkpt>
      <trkpt lat="50.04058" lon="2.02598">
        <ele>30.2</ele>
        <time>2012-09-09T09:15:04Z</time>
      </trkpt>
      <trkpt lat="50.04048" lon="2.02614">
        <ele>27.5</ele>
        <time>2012-09-09T09:15:14Z</time>
      </trkpt>
      <trkpt lat="50.04038" lon="2.02629">
        <ele>22.9</ele>
        <time>2012-09-09T09:15:24Z</time>
      </trkpt>
      <trkpt lat="50.04016" lon="2.02634">
        <ele>21</ele>
        <time>2012-09-09T09:15:44Z</time>
      </trkpt>
      <trkpt lat="50.04016" lon="2.02634">
        <ele>21</ele>
        <time>2012-09-09T09:19:21Z</time>
      </trkpt>
      <trkpt lat="50.04007" lon="2.02625">
        <ele>22.3</ele>
        <time>2012-09-09T09:19:23Z</time>
      </trkpt>
      <trkpt lat="50.04009" lon="2.02597">
        <ele>22.3</ele>
        <time>2012-09-09T09:19:36Z</time>
      </trkpt>
      <trkpt lat="50.04011" lon="2.02575">
        <ele>22.3</ele>
        <time>2012-09-09T09:19:51Z</time>
      </trkpt>
      <trkpt lat="50.04014" lon="2.02549">
        <ele>22.3</ele>
        <time>2012-09-09T09:20:03Z</time>
      </trkpt>
      <trkpt lat="50.04016" lon="2.02526">
        <ele>22.3</ele>
        <time>2012-09-09T09:20:16Z</time>
      </trkpt>
      <trkpt lat="50.04017" lon="2.02505">
        <ele>26.8</ele>
        <time>2012-09-09T09:20:28Z</time>
      </trkpt>
      <trkpt lat="50.0402" lon="2.02483">
        <ele>31.8</ele>
        <time>2012-09-09T09:20:39Z</time>
      </trkpt>
      <trkpt lat="50.04023" lon="2.02462">
        <ele>32.3</ele>
        <time>2012-09-09T09:20:51Z</time>
      </trkpt>
      <trkpt lat="50.04024" lon="2.02439">
        <ele>32.3</ele>
        <time>2012-09-09T09:21:02Z</time>
      </trkpt>
      <trkpt lat="50.04021" lon="2.02418">
        <ele>32.3</ele>
        <time>2012-09-09T09:21:14Z</time>
      </trkpt>
      <trkpt lat="50.04019" lon="2.02397">
        <ele>32.3</ele>
        <time>2012-09-09T09:21:25Z</time>
      </trkpt>
      <trkpt lat="50.04014" lon="2.02375">
        <ele>32.3</ele>
        <time>2012-09-09T09:21:37Z</time>
      </trkpt>
      <trkpt lat="50.04011" lon="2.02355">
        <ele>33</ele>
        <time>2012-09-09T09:21:47Z</time>
      </trkpt>
      <trkpt lat="50.04008" lon="2.02333">
        <ele>34.5</ele>
        <time>2012-09-09T09:21:59Z</time>
      </trkpt>
      <trkpt lat="50.04004" lon="2.02312">
        <ele>35.9</ele>
        <time>2012-09-09T09:22:10Z</time>
      </trkpt>
      <trkpt lat="50.04001" lon="2.02291">
        <ele>37.1</ele>
        <time>2012-09-09T09:22:20Z</time>
      </trkpt>
      <trkpt lat="50.03999" lon="2.0227">
        <ele>38.4</ele>
        <time>2012-09-09T09:22:30Z</time>
      </trkpt>
      <trkpt lat="50.03995" lon="2.02249">
        <ele>39.7</ele>
        <time>2012-09-09T09:22:41Z</time>
      </trkpt>
      <trkpt lat="50.03991" lon="2.02227">
        <ele>41.1</ele>
        <time>2012-09-09T09:22:52Z</time>
      </trkpt>
      <trkpt lat="50.03988" lon="2.02205">
        <ele>42.5</ele>
        <time>2012-09-09T09:23:03Z</time>
      </trkpt>
      <trkpt lat="50.03984" lon="2.02183">
        <ele>43.2</ele>
        <time>2012-09-09T09:23:14Z</time>
      </trkpt>
      <trkpt lat="50.0398" lon="2.02163">
        <ele>43.2</ele>
        <time>2012-09-09T09:23:24Z</time>
      </trkpt>
      <trkpt lat="50.03977" lon="2.02141">
        <ele>43.2</ele>
        <time>2012-09-09T09:23:35Z</time>
      </trkpt>
      <trkpt lat="50.03973" lon="2.02119">
        <ele>43.2</ele>
        <time>2012-09-09T09:23:46Z</time>
      </trkpt>
      <trkpt lat="50.03969" lon="2.02098">
        <ele>43.2</ele>
        <time>2012-09-09T09:23:57Z</time>
      </trkpt>
      <trkpt lat="50.03966" lon="2.02077">
        <ele>43.2</ele>
        <time>2012-09-09T09:24:07Z</time>
      </trkpt>
      <trkpt lat="50.03963" lon="2.02056">
        <ele>43.2</ele>
        <time>2012-09-09T09:24:17Z</time>
      </trkpt>
      <trkpt lat="50.03961" lon="2.02035">
        <ele>43.2</ele>
        <time>2012-09-09T09:24:27Z</time>
      </trkpt>
      <trkpt lat="50.03958" lon="2.02014">
        <ele>44.5</ele>
        <time>2012-09-09T09:24:37Z</time>
      </trkpt>
      <trkpt lat="50.03953" lon="2.01993">
        <ele>45.9</ele>
        <time>2012-09-09T09:24:48Z</time>
      </trkpt>
      <trkpt lat="50.0395" lon="2.01971">
        <ele>47.3</ele>
        <time>2012-09-09T09:24:59Z</time>
      </trkpt>
      <trkpt lat="50.03946" lon="2.01948">
        <ele>48.8</ele>
        <time>2012-09-09T09:25:11Z</time>
      </trkpt>
      <trkpt lat="50.03944" lon="2.01927">
        <ele>49.9</ele>
        <time>2012-09-09T09:25:20Z</time>
      </trkpt>
      <trkpt lat="50.0394" lon="2.01907">
        <ele>51.3</ele>
        <time>2012-09-09T09:25:31Z</time>
      </trkpt>
      <trkpt lat="50.03936" lon="2.01885">
        <ele>52.7</ele>
        <time>2012-09-09T09:25:42Z</time>
      </trkpt>
      <trkpt lat="50.03933" lon="2.01863">
        <ele>53.9</ele>
        <time>2012-09-09T09:25:51Z</time>
      </trkpt>
      <trkpt lat="50.03929" lon="2.01843">
        <ele>55</ele>
        <time>2012-09-09T09:26:03Z</time>
      </trkpt>
      <trkpt lat="50.03926" lon="2.01822">
        <ele>55</ele>
        <time>2012-09-09T09:26:13Z</time>
      </trkpt>
      <trkpt lat="50.03922" lon="2.01802">
        <ele>55</ele>
        <time>2012-09-09T09:26:24Z</time>
      </trkpt>
      <trkpt lat="50.03918" lon="2.01781">
        <ele>55</ele>
        <time>2012-09-09T09:26:34Z</time>
      </trkpt>
      <trkpt lat="50.03909" lon="2.01765">
        <ele>55</ele>
        <time>2012-09-09T09:26:46Z</time>
      </trkpt>
      <trkpt lat="50.03895" lon="2.0177">
        <ele>55</ele>
        <time>2012-09-09T09:26:56Z</time>
      </trkpt>
      <trkpt lat="50.03881" lon="2.01775">
        <ele>52.6</ele>
        <time>2012-09-09T09:27:07Z</time>
      </trkpt>
      <trkpt lat="50.03867" lon="2.01781">
        <ele>50.2</ele>
        <time>2012-09-09T09:27:18Z</time>
      </trkpt>
      <trkpt lat="50.03852" lon="2.01787">
        <ele>47.7</ele>
        <time>2012-09-09T09:27:29Z</time>
      </trkpt>
      <trkpt lat="50.03839" lon="2.01794">
        <ele>45.7</ele>
        <time>2012-09-09T09:27:38Z</time>
      </trkpt>
      <trkpt lat="50.03826" lon="2.01799">
        <ele>44.9</ele>
        <time>2012-09-09T09:27:49Z</time>
      </trkpt>
      <trkpt lat="50.03813" lon="2.01805">
        <ele>44.9</ele>
        <time>2012-09-09T09:27:59Z</time>
      </trkpt>
      <trkpt lat="50.03798" lon="2.01809">
        <ele>48.3</ele>
        <time>2012-09-09T09:28:09Z</time>
      </trkpt>
      <trkpt lat="50.03785" lon="2.01815">
        <ele>52</ele>
        <time>2012-09-09T09:28:20Z</time>
      </trkpt>
      <trkpt lat="50.03763" lon="2.0181">
        <ele>54.5</ele>
        <time>2012-09-09T09:28:40Z</time>
      </trkpt>
      <trkpt lat="50.03763" lon="2.0181">
        <ele>54.5</ele>
        <time>2012-09-09T09:31:16Z</time>
      </trkpt>
      <trkpt lat="50.03755" lon="2.01799">
        <ele>52.9</ele>
        <time>2012-09-09T09:31:19Z</time>
      </trkpt>
      <trkpt lat="50.03751" lon="2.01777">
        <ele>58.4</ele>
        <time>2012-09-09T09:31:31Z</time>
      </trkpt>
      <trkpt lat="50.03748" lon="2.01755">
        <ele>58.4</ele>
        <time>2012-09-09T09:31:41Z</time>
      </trkpt>
      <trkpt lat="50.03746" lon="2.01734">
        <ele>58.4</ele>
        <time>2012-09-09T09:31:52Z</time>
      </trkpt>
      <trkpt lat="50.03744" lon="2.01712">
        <ele>58.4</ele>
        <time>2012-09-09T09:32:02Z</time>
      </trkpt>
      <trkpt lat="50.03741" lon="2.01689">
        <ele>58.4</ele>
        <time>2012-09-09T09:32:14Z</time>
      </trkpt>
      <trkpt lat="50.03741" lon="2.01668">
        <ele>58.4</ele>
        <time>2012-09-09T09:32:23Z</time>
      </trkpt>
      <trkpt lat="50.03739" lon="2.01646">
        <ele>58.4</ele>
        <time>2012-09-09T09:32:32Z</time>
      </trkpt>
      <trkpt lat="50.03738" lon="2.01621">
        <ele>58.4</ele>
        <time>2012-09-09T09:32:45Z</time>
      </trkpt>
      <trkpt lat="50.03738" lon="2.01598">
        <ele>58.4</ele>
        <time>2012-09-09T09:32:56Z</time>
      </trkpt>
      <trkpt lat="50.03738" lon="2.01576">
        <ele>58.4</ele>
        <time>2012-09-09T09:33:07Z</time>
      </trkpt>
      <trkpt lat="50.03739" lon="2.01553">
        <ele>58.4</ele>
        <time>2012-09-09T09:33:17Z</time>
      </trkpt>
      <trkpt lat="50.03738" lon="2.01531">
        <ele>58.4</ele>
        <time>2012-09-09T09:33:27Z</time>
      </trkpt>
      <trkpt lat="50.03733" lon="2.01509">
        <ele>58.4</ele>
        <time>2012-09-09T09:33:37Z</time>
      </trkpt>
      <trkpt lat="50.03731" lon="2.01487">
        <ele>58.4</ele>
        <time>2012-09-09T09:33:47Z</time>
      </trkpt>
      <trkpt lat="50.03728" lon="2.01464">
        <ele>58.4</ele>
        <time>2012-09-09T09:33:57Z</time>
      </trkpt>
      <trkpt lat="50.03725" lon="2.01443">
        <ele>58.4</ele>
        <time>2012-09-09T09:34:09Z</time>
      </trkpt>
      <trkpt lat="50.03721" lon="2.01423">
        <ele>58.4</ele>
        <time>2012-09-09T09:34:19Z</time>
      </trkpt>
      <trkpt lat="50.03718" lon="2.01401">
        <ele>58.4</ele>
        <time>2012-09-09T09:34:28Z</time>
      </trkpt>
      <trkpt lat="50.03715" lon="2.01381">
        <ele>59.2</ele>
        <time>2012-09-09T09:34:38Z</time>
      </trkpt>
      <trkpt lat="50.03712" lon="2.01359">
        <ele>61</ele>
        <time>2012-09-09T09:34:48Z</time>
      </trkpt>
      <trkpt lat="50.03707" lon="2.01338">
        <ele>63</ele>
        <time>2012-09-09T09:34:59Z</time>
      </trkpt>
      <trkpt lat="50.03704" lon="2.01316">
        <ele>65.1</ele>
        <time>2012-09-09T09:35:10Z</time>
      </trkpt>
      <trkpt lat="50.03701" lon="2.01295">
        <ele>67.1</ele>
        <time>2012-09-09T09:35:21Z</time>
      </trkpt>
      <trkpt lat="50.03697" lon="2.01274">
        <ele>68.5</ele>
        <time>2012-09-09T09:35:33Z</time>
      </trkpt>
      <trkpt lat="50.03694" lon="2.01253">
        <ele>68.5</ele>
        <time>2012-09-09T09:35:43Z</time>
      </trkpt>
      <trkpt lat="50.03694" lon="2.01232">
        <ele>68.5</ele>
        <time>2012-09-09T09:35:53Z</time>
      </trkpt>
      <trkpt lat="50.03695" lon="2.01209">
        <ele>68.5</ele>
        <time>2012-09-09T09:36:04Z</time>
      </trkpt>
      <trkpt lat="50.03695" lon="2.01187">
        <ele>68.5</ele>
        <time>2012-09-09T09:36:15Z</time>
      </trkpt>
      <trkpt lat="50.03696" lon="2.01166">
        <ele>68.5</ele>
        <time>2012-09-09T09:36:26Z</time>
      </trkpt>
      <trkpt lat="50.03693" lon="2.01144">
        <ele>68.5</ele>
        <time>2012-09-09T09:36:38Z</time>
      </trkpt>
      <trkpt lat="50.0369" lon="2.01121">
        <ele>68.5</ele>
        <time>2012-09-09T09:36:45Z</time>
      </trkpt>
      <trkpt lat="50.03688" lon="2.01099">
        <ele>68.5</ele>
        <time>2012-09-09T09:36:50Z</time>
      </trkpt>
      <trkpt lat="50.03687" lon="2.01074">
        <ele>68.5</ele>
        <time>2012-09-09T09:36:55Z</time>
      </trkpt>
      <trkpt lat="50.03684" lon="2.01053">
        <ele>68.5</ele>
        <time>2012-09-09T09:37:08Z</time>
      </trkpt>
      <trkpt lat="50.03682" lon="2.01031">
        <ele>68.5</ele>
        <time>2012-09-09T09:37:18Z</time>
      </trkpt>
      <trkpt lat="50.03683" lon="2.01009">
        <ele>68.5</ele>
        <time>2012-09-09T09:37:28Z</time>
      </trkpt>
      <trkpt lat="50.03683" lon="2.00987">
        <ele>69.7</ele>
        <time>2012-09-09T09:37:39Z</time>
      </trkpt>
      <trkpt lat="50.03682" lon="2.00965">
        <ele>73.7</ele>
        <time>2012-09-09T09:37:49Z</time>
      </trkpt>
      <trkpt lat="50.03681" lon="2.00943">
        <ele>77.6</ele>
        <time>2012-09-09T09:37:59Z</time>
      </trkpt>
      <trkpt lat="50.0368" lon="2.00922">
        <ele>79.9</ele>
        <time>2012-09-09T09:38:09Z</time>
      </trkpt>
      <trkpt lat="50.03677" lon="2.009">
        <ele>81.2</ele>
        <time>2012-09-09T09:38:20Z</time>
      </trkpt>
      <trkpt lat="50.03674" lon="2.00877">
        <ele>82.4</ele>
        <time>2012-09-09T09:38:30Z</time>
      </trkpt>
      <trkpt lat="50.03671" lon="2.00855">
        <ele>83.7</ele>
        <time>2012-09-09T09:38:41Z</time>
      </trkpt>
      <trkpt lat="50.03666" lon="2.00834">
        <ele>84.9</ele>
        <time>2012-09-09T09:38:52Z</time>
      </trkpt>
      <trkpt lat="50.03664" lon="2.00812">
        <ele>86.1</ele>
        <time>2012-09-09T09:39:02Z</time>
      </trkpt>
      <trkpt lat="50.03661" lon="2.00791">
        <ele>87.2</ele>
        <time>2012-09-09T09:39:11Z</time>
      </trkpt>
      <trkpt lat="50.03655" lon="2.00772">
        <ele>88.3</ele>
        <time>2012-09-09T09:39:21Z</time>
      </trkpt>
      <trkpt lat="50.03647" lon="2.00754">
        <ele>89.5</ele>
        <time>2012-09-09T09:39:31Z</time>
      </trkpt>
      <trkpt lat="50.03636" lon="2.00742">
        <ele>90.7</ele>
        <time>2012-09-09T09:39:41Z</time>
      </trkpt>
      <trkpt lat="50.03624" lon="2.00729">
        <ele>90.9</ele>
        <time>2012-09-09T09:39:51Z</time>
      </trkpt>
      <trkpt lat="50.03613" lon="2.00716">
        <ele>90.9</ele>
        <time>2012-09-09T09:40:02Z</time>
      </trkpt>
      <trkpt lat="50.03602" lon="2.00704">
        <ele>90.9</ele>
        <time>2012-09-09T09:40:12Z</time>
      </trkpt>
      <trkpt lat="50.0359" lon="2.0069">
        <ele>90.9</ele>
        <time>2012-09-09T09:40:22Z</time>
      </trkpt>
      <trkpt lat="50.03578" lon="2.00679">
        <ele>90.9</ele>
        <time>2012-09-09T09:40:33Z</time>
      </trkpt>
      <trkpt lat="50.03566" lon="2.00666">
        <ele>90.9</ele>
        <time>2012-09-09T09:40:42Z</time>
      </trkpt>
      <trkpt lat="50.03555" lon="2.00653">
        <ele>90.9</ele>
        <time>2012-09-09T09:40:52Z</time>
      </trkpt>
      <trkpt lat="50.03544" lon="2.00642">
        <ele>90.9</ele>
        <time>2012-09-09T09:41:02Z</time>
      </trkpt>
      <trkpt lat="50.03532" lon="2.00627">
        <ele>90.9</ele>
        <time>2012-09-09T09:41:14Z</time>
      </trkpt>
      <trkpt lat="50.03523" lon="2.00611">
        <ele>90.9</ele>
        <time>2012-09-09T09:41:25Z</time>
      </trkpt>
      <trkpt lat="50.03513" lon="2.00597">
        <ele>90.9</ele>
        <time>2012-09-09T09:41:35Z</time>
      </trkpt>
      <trkpt lat="50.03503" lon="2.00581">
        <ele>90.9</ele>
        <time>2012-09-09T09:41:47Z</time>
      </trkpt>
      <trkpt lat="50.0348" lon="2.00593">
        <ele>89.6</ele>
        <time>2012-09-09T09:42:05Z</time>
      </trkpt>
      <trkpt lat="50.0348" lon="2.00593">
        <ele>89.6</ele>
        <time>2012-09-09T09:44:47Z</time>
      </trkpt>
      <trkpt lat="50.0347" lon="2.0061">
        <ele>88.3</ele>
        <time>2012-09-09T09:45:12Z</time>
      </trkpt>
      <trkpt lat="50.03461" lon="2.00628">
        <ele>89</ele>
        <time>2012-09-09T09:45:23Z</time>
      </trkpt>
      <trkpt lat="50.03452" lon="2.00646">
        <ele>89.8</ele>
        <time>2012-09-09T09:45:34Z</time>
      </trkpt>
      <trkpt lat="50.03444" lon="2.00664">
        <ele>90.5</ele>
        <time>2012-09-09T09:45:44Z</time>
      </trkpt>
      <trkpt lat="50.03435" lon="2.00681">
        <ele>91.2</ele>
        <time>2012-09-09T09:45:58Z</time>
      </trkpt>
      <trkpt lat="50.03424" lon="2.00695">
        <ele>91.2</ele>
        <time>2012-09-09T09:46:06Z</time>
      </trkpt>
      <trkpt lat="50.03413" lon="2.00709">
        <ele>91.2</ele>
        <time>2012-09-09T09:46:17Z</time>
      </trkpt>
      <trkpt lat="50.03402" lon="2.00723">
        <ele>91.2</ele>
        <time>2012-09-09T09:46:28Z</time>
      </trkpt>
      <trkpt lat="50.0339" lon="2.00735">
        <ele>91.2</ele>
        <time>2012-09-09T09:46:38Z</time>
      </trkpt>
      <trkpt lat="50.03378" lon="2.00748">
        <ele>91.2</ele>
        <time>2012-09-09T09:46:48Z</time>
      </trkpt>
      <trkpt lat="50.03367" lon="2.00761">
        <ele>91.2</ele>
        <time>2012-09-09T09:46:58Z</time>
      </trkpt>
      <trkpt lat="50.03355" lon="2.00776">
        <ele>91.2</ele>
        <time>2012-09-09T09:47:08Z</time>
      </trkpt>
      <trkpt lat="50.03344" lon="2.0079">
        <ele>91.2</ele>
        <time>2012-09-09T09:47:19Z</time>
      </trkpt>
      <trkpt lat="50.03332" lon="2.00803">
        <ele>91.2</ele>
        <time>2012-09-09T09:47:31Z</time>
      </trkpt>
      <trkpt lat="50.0332" lon="2.00817">
        <ele>91.2</ele>
        <time>2012-09-09T09:47:42Z</time>
      </trkpt>
      <trkpt lat="50.03308" lon="2.00829">
        <ele>91.2</ele>
        <time>2012-09-09T09:47:51Z</time>
      </trkpt>
      <trkpt lat="50.03297" lon="2.00844">
        <ele>91.2</ele>
        <time>2012-09-09T09:48:03Z</time>
      </trkpt>
      <trkpt lat="50.03288" lon="2.0086">
        <ele>91.2</ele>
        <time>2012-09-09T09:48:14Z</time>
      </trkpt>
      <trkpt lat="50.03278" lon="2.00875">
        <ele>91.2</ele>
        <time>2012-09-09T09:48:25Z</time>
      </trkpt>
      <trkpt lat="50.03269" lon="2.00891">
        <ele>91.1</ele>
        <time>2012-09-09T09:48:35Z</time>
      </trkpt>
      <trkpt lat="50.0326" lon="2.00909">
        <ele>90.1</ele>
        <time>2012-09-09T09:48:45Z</time>
      </trkpt>
      <trkpt lat="50.03252" lon="2.00926">
        <ele>88.9</ele>
        <time>2012-09-09T09:48:56Z</time>
      </trkpt>
      <trkpt lat="50.03244" lon="2.00945">
        <ele>87.9</ele>
        <time>2012-09-09T09:49:06Z</time>
      </trkpt>
      <trkpt lat="50.03238" lon="2.00964">
        <ele>86.8</ele>
        <time>2012-09-09T09:49:17Z</time>
      </trkpt>
      <trkpt lat="50.03231" lon="2.00983">
        <ele>85.8</ele>
        <time>2012-09-09T09:49:27Z</time>
      </trkpt>
      <trkpt lat="50.03224" lon="2.01002">
        <ele>84.6</ele>
        <time>2012-09-09T09:49:38Z</time>
      </trkpt>
      <trkpt lat="50.03217" lon="2.01023">
        <ele>83.6</ele>
        <time>2012-09-09T09:49:48Z</time>
      </trkpt>
      <trkpt lat="50.03211" lon="2.01043">
        <ele>82.5</ele>
        <time>2012-09-09T09:49:59Z</time>
      </trkpt>
      <trkpt lat="50.03204" lon="2.01062">
        <ele>81.5</ele>
        <time>2012-09-09T09:50:08Z</time>
      </trkpt>
      <trkpt lat="50.03199" lon="2.01082">
        <ele>80.4</ele>
        <time>2012-09-09T09:50:19Z</time>
      </trkpt>
      <trkpt lat="50.03192" lon="2.01103">
        <ele>79.3</ele>
        <time>2012-09-09T09:50:30Z</time>
      </trkpt>
      <trkpt lat="50.03185" lon="2.01122">
        <ele>78.2</ele>
        <time>2012-09-09T09:50:41Z</time>
      </trkpt>
      <trkpt lat="50.03179" lon="2.01142">
        <ele>77.1</ele>
        <time>2012-09-09T09:50:51Z</time>
      </trkpt>
      <trkpt lat="50.03172" lon="2.0116">
        <ele>76.7</ele>
        <time>2012-09-09T09:51:00Z</time>
      </trkpt>
      <trkpt lat="50.03165" lon="2.0118">
        <ele>76.7</ele>
        <time>2012-09-09T09:51:10Z</time>
      </trkpt>
      <trkpt lat="50.03158" lon="2.01199">
        <ele>80.8</ele>
        <time>2012-09-09T09:51:19Z</time>
      </trkpt>
      <trkpt lat="50.03149" lon="2.01214">
        <ele>86</ele>
        <time>2012-09-09T09:51:29Z</time>
      </trkpt>
      <trkpt lat="50.03139" lon="2.0123">
        <ele>88.1</ele>
        <time>2012-09-09T09:51:40Z</time>
      </trkpt>
      <trkpt lat="50.03128" lon="2.01245">
        <ele>88.1</ele>
        <time>2012-09-09T09:51:50Z</time>
      </trkpt>
      <trkpt lat="50.03117" lon="2.01259">
        <ele>88.1</ele>
        <time>2012-09-09T09:52:00Z</time>
      </trkpt>
      <trkpt lat="50.03106" lon="2.01272">
        <ele>87.4</ele>
        <time>2012-09-09T09:52:10Z</time>
      </trkpt>
      <trkpt lat="50.03095" lon="2.01284">
        <ele>86.7</ele>
        <time>2012-09-09T09:52:21Z</time>
      </trkpt>
      <trkpt lat="50.03084" lon="2.01299">
        <ele>86</ele>
        <time>2012-09-09T09:52:32Z</time>
      </trkpt>
      <trkpt lat="50.03074" lon="2.01314">
        <ele>85.4</ele>
        <time>2012-09-09T09:52:42Z</time>
      </trkpt>
      <trkpt lat="50.03063" lon="2.01328">
        <ele>84.7</ele>
        <time>2012-09-09T09:52:52Z</time>
      </trkpt>
      <trkpt lat="50.03053" lon="2.01344">
        <ele>84.1</ele>
        <time>2012-09-09T09:53:02Z</time>
      </trkpt>
      <trkpt lat="50.03043" lon="2.01357">
        <ele>83.4</ele>
        <time>2012-09-09T09:53:12Z</time>
      </trkpt>
      <trkpt lat="50.03032" lon="2.01371">
        <ele>82.8</ele>
        <time>2012-09-09T09:53:22Z</time>
      </trkpt>
      <trkpt lat="50.03022" lon="2.01387">
        <ele>82.1</ele>
        <time>2012-09-09T09:53:33Z</time>
      </trkpt>
      <trkpt lat="50.03011" lon="2.01401">
        <ele>81.4</ele>
        <time>2012-09-09T09:53:44Z</time>
      </trkpt>
      <trkpt lat="50.02999" lon="2.01416">
        <ele>80.7</ele>
        <time>2012-09-09T09:53:54Z</time>
      </trkpt>
      <trkpt lat="50.02989" lon="2.01431">
        <ele>80</ele>
        <time>2012-09-09T09:54:05Z</time>
      </trkpt>
      <trkpt lat="50.02977" lon="2.01446">
        <ele>79.3</ele>
        <time>2012-09-09T09:54:16Z</time>
      </trkpt>
      <trkpt lat="50.02966" lon="2.01462">
        <ele>78.6</ele>
        <time>2012-09-09T09:54:28Z</time>
      </trkpt>
      <trkpt lat="50.02956" lon="2.01476">
        <ele>78</ele>
        <time>2012-09-09T09:54:37Z</time>
      </trkpt>
      <trkpt lat="50.02946" lon="2.01491">
        <ele>77.3</ele>
        <time>2012-09-09T09:54:47Z</time>
      </trkpt>
      <trkpt lat="50.02936" lon="2.01505">
        <ele>76.6</ele>
        <time>2012-09-09T09:54:58Z</time>
      </trkpt>
      <trkpt lat="50.02927" lon="2.01522">
        <ele>76</ele>
        <time>2012-09-09T09:55:08Z</time>
      </trkpt>
      <trkpt lat="50.02918" lon="2.01539">
        <ele>75.9</ele>
        <time>2012-09-09T09:55:18Z</time>
      </trkpt>
      <trkpt lat="50.02912" lon="2.01557">
        <ele>75.9</ele>
        <time>2012-09-09T09:55:27Z</time>
      </trkpt>
      <trkpt lat="50.02905" lon="2.01577">
        <ele>75.9</ele>
        <time>2012-09-09T09:55:37Z</time>
      </trkpt>
      <trkpt lat="50.02898" lon="2.01596">
        <ele>75.9</ele>
        <time>2012-09-09T09:55:48Z</time>
      </trkpt>
      <trkpt lat="50.02893" lon="2.01616">
        <ele>75.9</ele>
        <time>2012-09-09T09:55:58Z</time>
      </trkpt>
      <trkpt lat="50.02888" lon="2.01637">
        <ele>75.9</ele>
        <time>2012-09-09T09:56:08Z</time>
      </trkpt>
      <trkpt lat="50.02883" lon="2.01658">
        <ele>75.9</ele>
        <time>2012-09-09T09:56:18Z</time>
      </trkpt>
      <trkpt lat="50.02879" lon="2.0168">
        <ele>75.9</ele>
        <time>2012-09-09T09:56:28Z</time>
      </trkpt>
      <trkpt lat="50.02874" lon="2.01702">
        <ele>73.2</ele>
        <time>2012-09-09T09:56:39Z</time>
      </trkpt>
      <trkpt lat="50.02869" lon="2.01722">
        <ele>70.5</ele>
        <time>2012-09-09T09:56:48Z</time>
      </trkpt>
      <trkpt lat="50.02863" lon="2.01742">
        <ele>67.9</ele>
        <time>2012-09-09T09:56:57Z</time>
      </trkpt>
      <trkpt lat="50.02858" lon="2.01762">
        <ele>65.8</ele>
        <time>2012-09-09T09:57:08Z</time>
      </trkpt>
      <trkpt lat="50.02852" lon="2.01782">
        <ele>65.8</ele>
        <time>2012-09-09T09:57:19Z</time>
      </trkpt>
      <trkpt lat="50.02844" lon="2.018">
        <ele>65.8</ele>
        <time>2012-09-09T09:57:29Z</time>
      </trkpt>
      <trkpt lat="50.02835" lon="2.01818">
        <ele>65.8</ele>
        <time>2012-09-09T09:57:38Z</time>
      </trkpt>
      <trkpt lat="50.02827" lon="2.01835">
        <ele>65.8</ele>
        <time>2012-09-09T09:57:48Z</time>
      </trkpt>
      <trkpt lat="50.02818" lon="2.01853">
        <ele>65.8</ele>
        <time>2012-09-09T09:57:59Z</time>
      </trkpt>
      <trkpt lat="50.02809" lon="2.01871">
        <ele>59.6</ele>
        <time>2012-09-09T09:58:11Z</time>
      </trkpt>
      <trkpt lat="50.02801" lon="2.01888">
        <ele>55.8</ele>
        <time>2012-09-09T09:58:22Z</time>
      </trkpt>
      <trkpt lat="50.02793" lon="2.01906">
        <ele>55.8</ele>
        <time>2012-09-09T09:58:33Z</time>
      </trkpt>
      <trkpt lat="50.02784" lon="2.01922">
        <ele>55.8</ele>
        <time>2012-09-09T09:58:44Z</time>
      </trkpt>
      <trkpt lat="50.02775" lon="2.01939">
        <ele>55.8</ele>
        <time>2012-09-09T09:58:54Z</time>
      </trkpt>
      <trkpt lat="50.02767" lon="2.01957">
        <ele>55.8</ele>
        <time>2012-09-09T09:59:05Z</time>
      </trkpt>
      <trkpt lat="50.02757" lon="2.01973">
        <ele>55.8</ele>
        <time>2012-09-09T09:59:17Z</time>
      </trkpt>
      <trkpt lat="50.02747" lon="2.01993">
        <ele>55.8</ele>
        <time>2012-09-09T09:59:29Z</time>
      </trkpt>
      <trkpt lat="50.02739" lon="2.02012">
        <ele>47.1</ele>
        <time>2012-09-09T09:59:41Z</time>
      </trkpt>
      <trkpt lat="50.0273" lon="2.02028">
        <ele>43.9</ele>
        <time>2012-09-09T09:59:52Z</time>
      </trkpt>
      <trkpt lat="50.02721" lon="2.02046">
        <ele>43.9</ele>
        <time>2012-09-09T10:00:02Z</time>
      </trkpt>
      <trkpt lat="50.02713" lon="2.02064">
        <ele>43.9</ele>
        <time>2012-09-09T10:00:13Z</time>
      </trkpt>
      <trkpt lat="50.02705" lon="2.02082">
        <ele>43.9</ele>
        <time>2012-09-09T10:00:24Z</time>
      </trkpt>
      <trkpt lat="50.02697" lon="2.021">
        <ele>43.9</ele>
        <time>2012-09-09T10:00:33Z</time>
      </trkpt>
      <trkpt lat="50.02688" lon="2.02117">
        <ele>43.9</ele>
        <time>2012-09-09T10:00:45Z</time>
      </trkpt>
      <trkpt lat="50.0268" lon="2.02136">
        <ele>43.9</ele>
        <time>2012-09-09T10:00:57Z</time>
      </trkpt>
      <trkpt lat="50.02673" lon="2.02156">
        <ele>43.9</ele>
        <time>2012-09-09T10:01:07Z</time>
      </trkpt>
      <trkpt lat="50.02669" lon="2.02178">
        <ele>43.9</ele>
        <time>2012-09-09T10:01:20Z</time>
      </trkpt>
      <trkpt lat="50.0267" lon="2.022">
        <ele>43.9</ele>
        <time>2012-09-09T10:01:31Z</time>
      </trkpt>
      <trkpt lat="50.02673" lon="2.02221">
        <ele>41.4</ele>
        <time>2012-09-09T10:01:42Z</time>
      </trkpt>
      <trkpt lat="50.02674" lon="2.02243">
        <ele>37.2</ele>
        <time>2012-09-09T10:01:52Z</time>
      </trkpt>
      <trkpt lat="50.02675" lon="2.02268">
        <ele>32.6</ele>
        <time>2012-09-09T10:02:03Z</time>
      </trkpt>
      <trkpt lat="50.02673" lon="2.0229">
        <ele>28.6</ele>
        <time>2012-09-09T10:02:15Z</time>
      </trkpt>
      <trkpt lat="50.02672" lon="2.02311">
        <ele>25.9</ele>
        <time>2012-09-09T10:02:28Z</time>
      </trkpt>
      <trkpt lat="50.02671" lon="2.02333">
        <ele>22.9</ele>
        <time>2012-09-09T10:02:42Z</time>
      </trkpt>
      <trkpt lat="50.02668" lon="2.02355">
        <ele>21</ele>
        <time>2012-09-09T10:02:51Z</time>
      </trkpt>
      <trkpt lat="50.0267" lon="2.02377">
        <ele>18.3</ele>
        <time>2012-09-09T10:03:04Z</time>
      </trkpt>
      <trkpt lat="50.0267" lon="2.02398">
        <ele>17.5</ele>
        <time>2012-09-09T10:03:13Z</time>
      </trkpt>
      <trkpt lat="50.02676" lon="2.02417">
        <ele>17.5</ele>
        <time>2012-09-09T10:03:25Z</time>
      </trkpt>
      <trkpt lat="50.02686" lon="2.02435">
        <ele>17.5</ele>
        <time>2012-09-09T10:03:41Z</time>
      </trkpt>
      <trkpt lat="50.02695" lon="2.02451">
        <ele>17.5</ele>
        <time>2012-09-09T10:03:51Z</time>
      </trkpt>
      <trkpt lat="50.02705" lon="2.02466">
        <ele>17.5</ele>
        <time>2012-09-09T10:04:01Z</time>
      </trkpt>
      <trkpt lat="50.02716" lon="2.02479">
        <ele>17.5</ele>
        <time>2012-09-09T10:04:12Z</time>
      </trkpt>
      <trkpt lat="50.02727" lon="2.02493">
        <ele>17.5</ele>
        <time>2012-09-09T10:04:23Z</time>
      </trkpt>
      <trkpt lat="50.02736" lon="2.02511">
        <ele>17.5</ele>
        <time>2012-09-09T10:04:35Z</time>
      </trkpt>
      <trkpt lat="50.0275" lon="2.02543">
        <ele>17.5</ele>
        <time>2012-09-09T10:04:55Z</time>
      </trkpt>
      <trkpt lat="50.0275" lon="2.02543">
        <ele>17.5</ele>
        <time>2012-09-09T10:06:44Z</time>
      </trkpt>
      <trkpt lat="50.02759" lon="2.02552">
        <ele>17.5</ele>
        <time>2012-09-09T10:06:48Z</time>
      </trkpt>
      <trkpt lat="50.02773" lon="2.02549">
        <ele>17.5</ele>
        <time>2012-09-09T10:07:05Z</time>
      </trkpt>
      <trkpt lat="50.02788" lon="2.02546">
        <ele>17.5</ele>
        <time>2012-09-09T10:07:11Z</time>
      </trkpt>
      <trkpt lat="50.02804" lon="2.02544">
        <ele>17.5</ele>
        <time>2012-09-09T10:07:18Z</time>
      </trkpt>
      <trkpt lat="50.02817" lon="2.02548">
        <ele>17.5</ele>
        <time>2012-09-09T10:07:26Z</time>
      </trkpt>
      <trkpt lat="50.02834" lon="2.02556">
        <ele>17.5</ele>
        <time>2012-09-09T10:07:35Z</time>
      </trkpt>
      <trkpt lat="50.02848" lon="2.02562">
        <ele>17.5</ele>
        <time>2012-09-09T10:07:47Z</time>
      </trkpt>
      <trkpt lat="50.02862" lon="2.02569">
        <ele>17.5</ele>
        <time>2012-09-09T10:07:57Z</time>
      </trkpt>
      <trkpt lat="50.02875" lon="2.02575">
        <ele>17.5</ele>
        <time>2012-09-09T10:08:06Z</time>
      </trkpt>
      <trkpt lat="50.02887" lon="2.02586">
        <ele>17.5</ele>
        <time>2012-09-09T10:08:14Z</time>
      </trkpt>
      <trkpt lat="50.02898" lon="2.02599">
        <ele>17.9</ele>
        <time>2012-09-09T10:08:25Z</time>
      </trkpt>
      <trkpt lat="50.02908" lon="2.02615">
        <ele>19.8</ele>
        <time>2012-09-09T10:08:34Z</time>
      </trkpt>
      <trkpt lat="50.02918" lon="2.02632">
        <ele>21.6</ele>
        <time>2012-09-09T10:08:43Z</time>
      </trkpt>
      <trkpt lat="50.0293" lon="2.02645">
        <ele>23.7</ele>
        <time>2012-09-09T10:08:53Z</time>
      </trkpt>
      <trkpt lat="50.02943" lon="2.02655">
        <ele>25.4</ele>
        <time>2012-09-09T10:09:01Z</time>
      </trkpt>
      <trkpt lat="50.02954" lon="2.0267">
        <ele>27.5</ele>
        <time>2012-09-09T10:09:11Z</time>
      </trkpt>
      <trkpt lat="50.02967" lon="2.0268">
        <ele>28.1</ele>
        <time>2012-09-09T10:09:20Z</time>
      </trkpt>
      <trkpt lat="50.0298" lon="2.02692">
        <ele>28.1</ele>
        <time>2012-09-09T10:09:31Z</time>
      </trkpt>
      <trkpt lat="50.0299" lon="2.02708">
        <ele>28.1</ele>
        <time>2012-09-09T10:09:41Z</time>
      </trkpt>
      <trkpt lat="50.03003" lon="2.02716">
        <ele>28.1</ele>
        <time>2012-09-09T10:09:50Z</time>
      </trkpt>
      <trkpt lat="50.03015" lon="2.02729">
        <ele>28.1</ele>
        <time>2012-09-09T10:10:02Z</time>
      </trkpt>
      <trkpt lat="50.03027" lon="2.02741">
        <ele>28.1</ele>
        <time>2012-09-09T10:10:10Z</time>
      </trkpt>
      <trkpt lat="50.0304" lon="2.02748">
        <ele>28.1</ele>
        <time>2012-09-09T10:10:20Z</time>
      </trkpt>
      <trkpt lat="50.03054" lon="2.02754">
        <ele>20.8</ele>
        <time>2012-09-09T10:10:30Z</time>
      </trkpt>
      <trkpt lat="50.03067" lon="2.02759">
        <ele>12.5</ele>
        <time>2012-09-09T10:10:40Z</time>
      </trkpt>
      <trkpt lat="50.03081" lon="2.02756">
        <ele>12.5</ele>
        <time>2012-09-09T10:10:48Z</time>
      </trkpt>
      <trkpt lat="50.03096" lon="2.0275">
        <ele>12.5</ele>
        <time>2012-09-09T10:10:58Z</time>
      </trkpt>
      <trkpt lat="50.03109" lon="2.02743">
        <ele>12.5</ele>
        <time>2012-09-09T10:11:08Z</time>
      </trkpt>
      <trkpt lat="50.03124" lon="2.02742">
        <ele>12.5</ele>
        <time>2012-09-09T10:11:20Z</time>
      </trkpt>
      <trkpt lat="50.03138" lon="2.02733">
        <ele>12.5</ele>
        <time>2012-09-09T10:11:34Z</time>
      </trkpt>
      <trkpt lat="50.0315" lon="2.0272">
        <ele>12.5</ele>
        <time>2012-09-09T10:11:43Z</time>
      </trkpt>
      <trkpt lat="50.03165" lon="2.02718">
        <ele>12.5</ele>
        <time>2012-09-09T10:11:55Z</time>
      </trkpt>
      <trkpt lat="50.0318" lon="2.02712">
        <ele>12.5</ele>
        <time>2012-09-09T10:12:02Z</time>
      </trkpt>
      <trkpt lat="50.03195" lon="2.02705">
        <ele>12.5</ele>
        <time>2012-09-09T10:12:11Z</time>
      </trkpt>
      <trkpt lat="50.03209" lon="2.02701">
        <ele>12.5</ele>
        <time>2012-09-09T10:12:19Z</time>
      </trkpt>
      <trkpt lat="50.03223" lon="2.02697">
        <ele>12.5</ele>
        <time>2012-09-09T10:12:29Z</time>
      </trkpt>
      <trkpt lat="50.03238" lon="2.027">
        <ele>12.5</ele>
        <time>2012-09-09T10:12:38Z</time>
      </trkpt>
      <trkpt lat="50.03252" lon="2.02703">
        <ele>12.5</ele>
        <time>2012-09-09T10:12:48Z</time>
      </trkpt>
      <trkpt lat="50.03266" lon="2.02709">
        <ele>12.5</ele>
        <time>2012-09-09T10:12:59Z</time>
      </trkpt>
      <trkpt lat="50.0328" lon="2.02718">
        <ele>12.5</ele>
        <time>2012-09-09T10:13:09Z</time>
      </trkpt>
      <trkpt lat="50.03294" lon="2.02726">
        <ele>12.5</ele>
        <time>2012-09-09T10:13:20Z</time>
      </trkpt>
      <trkpt lat="50.03308" lon="2.02736">
        <ele>12.5</ele>
        <time>2012-09-09T10:13:29Z</time>
      </trkpt>
      <trkpt lat="50.0332" lon="2.02748">
        <ele>12.5</ele>
        <time>2012-09-09T10:13:37Z</time>
      </trkpt>
      <trkpt lat="50.03331" lon="2.02763">
        <ele>8.2</ele>
        <time>2012-09-09T10:13:48Z</time>
      </trkpt>
      <trkpt lat="50.03341" lon="2.02777">
        <ele>2.1</ele>
        <time>2012-09-09T10:13:56Z</time>
      </trkpt>
      <trkpt lat="50.03353" lon="2.02789">
        <ele>4.4</ele>
        <time>2012-09-09T10:14:04Z</time>
      </trkpt>
      <trkpt lat="50.03365" lon="2.02802">
        <ele>8.9</ele>
        <time>2012-09-09T10:14:14Z</time>
      </trkpt>
      <trkpt lat="50.03374" lon="2.02818">
        <ele>12.9</ele>
        <time>2012-09-09T10:14:23Z</time>
      </trkpt>
      <trkpt lat="50.03384" lon="2.02833">
        <ele>15.2</ele>
        <time>2012-09-09T10:14:32Z</time>
      </trkpt>
      <trkpt lat="50.03392" lon="2.02851">
        <ele>15.2</ele>
        <time>2012-09-09T10:14:42Z</time>
      </trkpt>
      <trkpt lat="50.034" lon="2.02871">
        <ele>15.2</ele>
        <time>2012-09-09T10:14:51Z</time>
      </trkpt>
      <trkpt lat="50.03405" lon="2.02892">
        <ele>15.2</ele>
        <time>2012-09-09T10:15:01Z</time>
      </trkpt>
      <trkpt lat="50.0341" lon="2.02913">
        <ele>15.2</ele>
        <time>2012-09-09T10:15:11Z</time>
      </trkpt>
      <trkpt lat="50.03414" lon="2.02935">
        <ele>15.2</ele>
        <time>2012-09-09T10:15:20Z</time>
      </trkpt>
      <trkpt lat="50.03417" lon="2.02955">
        <ele>15.2</ele>
        <time>2012-09-09T10:15:29Z</time>
      </trkpt>
      <trkpt lat="50.0342" lon="2.02976">
        <ele>15.2</ele>
        <time>2012-09-09T10:15:38Z</time>
      </trkpt>
      <trkpt lat="50.03422" lon="2.02999">
        <ele>15.2</ele>
        <time>2012-09-09T10:15:47Z</time>
      </trkpt>
      <trkpt lat="50.03422" lon="2.0302">
        <ele>15.2</ele>
        <time>2012-09-09T10:15:57Z</time>
      </trkpt>
      <trkpt lat="50.03424" lon="2.03042">
        <ele>15.2</ele>
        <time>2012-09-09T10:16:06Z</time>
      </trkpt>
      <trkpt lat="50.0343" lon="2.03062">
        <ele>15.2</ele>
        <time>2012-09-09T10:16:19Z</time>
      </trkpt>
      <trkpt lat="50.03445" lon="2.03073">
        <ele>15.2</ele>
        <time>2012-09-09T10:16:29Z</time>
      </trkpt>
      <trkpt lat="50.03458" lon="2.03083">
        <ele>15.2</ele>
        <time>2012-09-09T10:16:41Z</time>
      </trkpt>
      <trkpt lat="50.03474" lon="2.03097">
        <ele>15.2</ele>
        <time>2012-09-09T10:16:48Z</time>
      </trkpt>
      <trkpt lat="50.03487" lon="2.03107">
        <ele>15.2</ele>
        <time>2012-09-09T10:16:58Z</time>
      </trkpt>
      <trkpt lat="50.03503" lon="2.03118">
        <ele>15.2</ele>
        <time>2012-09-09T10:17:07Z</time>
      </trkpt>
      <trkpt lat="50.03508" lon="2.03097">
        <ele>15.2</ele>
        <time>2012-09-09T10:17:22Z</time>
      </trkpt>
      <trkpt lat="50.03514" lon="2.03077">
        <ele>15.2</ele>
        <time>2012-09-09T10:17:31Z</time>
      </trkpt>
      <trkpt lat="50.03515" lon="2.03072">
        <ele>15.2</ele>
        <time>2012-09-09T10:17:33Z</time>
      </trkpt>
    </trkseg>
  </trk>
</gpx>